Time,TemperatureF,DewpointF,PressureIn,WindDirection,WindDirectionDegrees,WindSpeedMPH,WindSpeedGustMPH,Humidity,HourlyPrecipIn,Conditions,Clouds,dailyrainin,SoftwareType,DateUTC
2013-01-22 00:01:00,28.1,14.0,30.11,West,275,13.8,13.8,55,0.00,CLR,SCT,0.00,WeatherDisplay:10.37,2013-01-22 05:01:00,
2013-01-22 00:03:00,28.1,14.0,30.11,West,263,13.8,13.8,55,0.00,CLR,SCT,0.00,WeatherDisplay:10.37,2013-01-22 05:03:00,
2013-01-22 00:05:00,28.1,14.0,30.10,WSW,254,13.8,13.8,55,0.00,CLR,SCT,0.00,WeatherDisplay:10.37,2013-01-22 05:05:00,
2013-01-22 00:06:00,27.9,13.8,30.10,West,261,14.0,14.0,55,0.00,CLR,SCT,0.00,WeatherDisplay:10.37,2013-01-22 05:06:00,
2013-01-22 00:08:00,27.9,14.2,30.10,West,262,11.5,11.5,56,0.00,CLR,SCT,0.00,WeatherDisplay:10.37,2013-01-22 05:08:00,
2013-01-22 00:11:00,27.9,14.2,30.10,West,274,15.0,15.0,56,0.00,CLR,SCT,0.00,WeatherDisplay:10.37,2013-01-22 05:11:00,
2013-01-22 00:12:00,27.9,13.8,30.10,WSW,245,15.0,15.0,55,0.00,CLR,SCT,0.00,WeatherDisplay:10.37,2013-01-22 05:12:00,
2013-01-22 00:14:00,27.8,13.7,30.10,West,259,12.7,12.7,55,0.00,CLR,SCT,0.00,WeatherDisplay:10.37,2013-01-22 05:14:00,
2013-01-22 00:15:00,27.8,14.1,30.10,WSW,253,10.0,10.0,56,0.00,CLR,SCT,0.00,WeatherDisplay:10.37,2013-01-22 05:15:00,
2013-01-22 00:17:00,27.8,13.3,30.10,West,271,17.3,17.3,54,0.00,CLR,SCT,0.00,WeatherDisplay:10.37,2013-01-22 05:17:00,
2013-01-22 00:22:00,27.8,13.7,30.10,West,273,12.7,12.7,55,0.00,CLR,SCT,0.00,WeatherDisplay:10.37,2013-01-22 05:22:00,
2013-01-22 00:24:00,27.6,13.5,30.10,West,264,11.5,11.5,55,0.00,CLR,SCT,0.00,WeatherDisplay:10.37,2013-01-22 05:24:00,
2013-01-22 00:25:00,27.6,13.1,30.10,West,271,13.8,13.8,54,0.00,CLR,SCT,0.00,WeatherDisplay:10.37,2013-01-22 05:25:00,
2013-01-22 00:29:00,27.6,13.5,30.10,WSW,255,11.5,11.5,55,0.00,CLR,SCT,0.00,WeatherDisplay:10.37,2013-01-22 05:29:00,
2013-01-22 00:30:00,27.6,12.7,30.10,WSW,253,11.5,11.5,53,0.00,CLR,SCT,0.00,WeatherDisplay:10.37,2013-01-22 05:30:00,
2013-01-22 00:36:00,27.3,13.2,30.09,WSW,257,11.5,11.5,55,0.00,CLR,SCT,0.00,WeatherDisplay:10.37,2013-01-22 05:36:00,
2013-01-22 00:37:00,27.3,12.8,30.09,West,265,11.5,11.5,54,0.00,CLR,SCT,0.00,WeatherDisplay:10.37,2013-01-22 05:37:00,
2013-01-22 00:42:00,27.2,12.7,30.10,West,259,11.0,11.0,54,0.00,CLR,SCT,0.00,WeatherDisplay:10.37,2013-01-22 05:42:00,
2013-01-22 00:46:00,27.2,12.3,30.10,West,269,11.5,11.5,53,0.00,CLR,SCT,0.00,WeatherDisplay:10.37,2013-01-22 05:46:00,
2013-01-22 00:49:00,27.0,12.5,30.10,West,259,13.0,13.0,54,0.00,CLR,SCT,0.00,WeatherDisplay:10.37,2013-01-22 05:49:00,
2013-01-22 00:54:00,26.9,12.5,30.09,WSW,250,11.5,11.5,54,0.00,CLR,SCT,0.00,WeatherDisplay:10.37,2013-01-22 05:54:00,
2013-01-22 00:55:00,26.9,12.0,30.09,WSW,254,16.1,16.1,53,0.00,CLR,SCT,0.00,WeatherDisplay:10.37,2013-01-22 05:55:00,
2013-01-22 00:56:00,26.9,12.0,30.09,West,265,16.1,16.1,53,0.00,CLR,SCT,0.00,WeatherDisplay:10.37,2013-01-22 05:56:00,
2013-01-22 01:00:00,26.7,12.3,30.09,WSW,246,9.2,9.2,54,0.00,CLR,SCT,0.00,WeatherDisplay:10.37,2013-01-22 06:00:00,
2013-01-22 01:02:00,26.7,12.7,30.09,WSW,257,10.4,10.4,55,0.00,CLR,SCT,0.00,WeatherDisplay:10.37,2013-01-22 06:02:00,
2013-01-22 01:06:00,26.6,12.6,30.09,West,265,10.4,10.4,55,0.00,CLR,SCT,0.00,WeatherDisplay:10.37,2013-01-22 06:06:00,
2013-01-22 01:07:00,26.6,12.6,30.09,West,261,11.0,11.0,55,0.00,CLR,SCT,0.00,WeatherDisplay:10.37,2013-01-22 06:07:00,
2013-01-22 01:12:00,26.4,12.0,30.09,WSW,248,11.5,11.5,54,0.00,CLR,SCT,0.00,WeatherDisplay:10.37,2013-01-22 06:12:00,
2013-01-22 01:14:00,26.4,12.4,30.09,SW,221,9.2,9.2,55,0.00,CLR,SCT,0.00,WeatherDisplay:10.37,2013-01-22 06:14:00,
2013-01-22 01:17:00,26.4,12.4,30.09,WSW,254,8.1,8.1,55,0.00,CLR,SCT,0.00,WeatherDisplay:10.37,2013-01-22 06:17:00,
2013-01-22 01:19:00,26.3,12.3,30.09,WSW,254,12.7,12.7,55,0.00,CLR,SCT,0.00,WeatherDisplay:10.37,2013-01-22 06:19:00,
2013-01-22 01:22:00,26.3,12.3,30.09,West,263,10.4,10.4,55,0.00,CLR,SCT,0.00,WeatherDisplay:10.37,2013-01-22 06:22:00,
2013-01-22 01:24:00,26.3,12.3,30.09,WSW,240,11.5,11.5,55,0.00,CLR,SCT,0.00,WeatherDisplay:10.37,2013-01-22 06:24:00,
2013-01-22 01:29:00,26.1,12.5,30.09,WSW,256,9.2,9.2,56,0.00,CLR,SCT,0.00,WeatherDisplay:10.37,2013-01-22 06:29:00,
2013-01-22 01:31:00,26.1,12.1,30.09,WSW,249,12.7,12.7,55,0.00,CLR,SCT,0.00,WeatherDisplay:10.37,2013-01-22 06:31:00,
2013-01-22 01:34:00,26.1,12.5,30.09,WSW,244,9.2,9.2,56,0.00,CLR,SCT,0.00,WeatherDisplay:10.37,2013-01-22 06:34:00,
2013-01-22 01:36:00,26.0,12.4,30.10,WSW,244,9.2,9.2,56,0.00,CLR,SCT,0.00,WeatherDisplay:10.37,2013-01-22 06:36:00,
2013-01-22 01:39:00,26.0,12.4,30.10,WSW,253,10.4,10.4,56,0.00,CLR,SCT,0.00,WeatherDisplay:10.37,2013-01-22 06:39:00,
2013-01-22 01:41:00,26.0,12.4,30.11,West,261,6.9,6.9,56,0.00,CLR,SCT,0.00,WeatherDisplay:10.37,2013-01-22 06:41:00,
2013-01-22 01:45:00,25.8,12.6,30.11,WSW,246,9.2,9.2,57,0.00,CLR,SCT,0.00,WeatherDisplay:10.37,2013-01-22 06:45:00,
2013-01-22 01:46:00,25.8,12.6,30.11,West,261,10.4,10.4,57,0.00,CLR,SCT,0.00,WeatherDisplay:10.37,2013-01-22 06:46:00,
2013-01-22 01:51:00,25.7,12.9,30.11,West,261,5.0,5.0,58,0.00,CLR,SCT,0.00,WeatherDisplay:10.37,2013-01-22 06:51:00,
2013-01-22 01:52:00,25.7,12.9,30.11,West,263,5.8,5.8,58,0.00,CLR,SCT,0.00,WeatherDisplay:10.37,2013-01-22 06:52:00,
2013-01-22 01:57:00,25.4,12.7,30.11,WSW,251,9.2,9.2,58,0.00,CLR,SCT,0.00,WeatherDisplay:10.37,2013-01-22 06:57:00,
2013-01-22 02:01:00,25.4,12.7,30.11,West,270,4.6,4.6,58,0.00,CLR,SCT,0.00,WeatherDisplay:10.37,2013-01-22 07:01:00,
2013-01-22 02:02:00,25.3,13.0,30.11,West,270,4.6,4.6,59,0.00,CLR,SCT,0.00,WeatherDisplay:10.37,2013-01-22 07:02:00,
2013-01-22 02:06:00,25.3,12.6,30.11,West,268,6.9,6.9,58,0.00,,SCT,0.00,WeatherDisplay:10.37,2013-01-22 07:06:00,
2013-01-22 02:07:00,25.3,12.6,30.11,West,268,5.8,5.8,58,0.00,,SCT,0.00,WeatherDisplay:10.37,2013-01-22 07:07:00,
2013-01-22 02:11:00,25.1,12.4,30.11,West,261,6.9,6.9,58,0.00,,SCT,0.00,WeatherDisplay:10.37,2013-01-22 07:11:00,
2013-01-22 02:12:00,25.1,12.4,30.11,West,262,6.9,6.9,58,0.00,,SCT,0.00,WeatherDisplay:10.37,2013-01-22 07:12:00,
2013-01-22 02:17:00,25.1,12.8,30.12,West,261,3.5,3.5,59,0.00,,SCT,0.00,WeatherDisplay:10.37,2013-01-22 07:17:00,
2013-01-22 02:18:00,25.0,12.7,30.12,West,261,5.0,5.0,59,0.00,,SCT,0.00,WeatherDisplay:10.37,2013-01-22 07:18:00,
2013-01-22 02:22:00,24.8,12.9,30.12,West,262,6.0,6.0,60,0.00,,SCT,0.00,WeatherDisplay:10.37,2013-01-22 07:22:00,
2013-01-22 02:23:00,24.8,12.5,30.12,West,260,8.1,8.1,59,0.00,,SCT,0.00,WeatherDisplay:10.37,2013-01-22 07:23:00,
2013-01-22 02:28:00,24.7,12.8,30.12,WSW,254,6.9,6.9,60,0.00,,SCT,0.00,WeatherDisplay:10.37,2013-01-22 07:28:00,
2013-01-22 02:30:00,24.7,12.4,30.12,WSW,246,9.2,9.2,59,0.00,,SCT,0.00,WeatherDisplay:10.37,2013-01-22 07:30:00,
2013-01-22 02:33:00,24.5,12.6,30.13,WSW,252,5.8,5.8,60,0.00,,SCT,0.00,WeatherDisplay:10.37,2013-01-22 07:33:00,
2013-01-22 02:36:00,24.5,12.6,30.13,WSW,255,6.9,6.9,60,0.00,,SCT,0.00,WeatherDisplay:10.37,2013-01-22 07:36:00,
2013-01-22 02:38:00,24.5,12.6,30.13,WSW,254,5.8,5.8,60,0.00,,SCT,0.00,WeatherDisplay:10.37,2013-01-22 07:38:00,
2013-01-22 02:41:00,24.5,12.6,30.13,WSW,253,6.0,6.0,60,0.00,,SCT,0.00,WeatherDisplay:10.37,2013-01-22 07:41:00,
2013-01-22 02:44:00,24.5,12.2,30.13,WSW,257,9.2,9.2,59,0.00,,SCT,0.00,WeatherDisplay:10.37,2013-01-22 07:44:00,
2013-01-22 02:46:00,24.7,12.4,30.13,WSW,254,8.1,8.1,59,0.00,,SCT,0.00,WeatherDisplay:10.37,2013-01-22 07:46:00,
2013-01-22 02:50:00,24.7,12.4,30.13,WSW,245,9.2,9.2,59,0.00,,SCT,0.00,WeatherDisplay:10.37,2013-01-22 07:50:00,
2013-01-22 02:52:00,24.8,12.5,30.13,West,262,11.5,11.5,59,0.00,,SCT,0.00,WeatherDisplay:10.37,2013-01-22 07:52:00,
2013-01-22 02:53:00,24.8,12.5,30.13,West,275,9.2,9.2,59,0.00,,SCT,0.00,WeatherDisplay:10.37,2013-01-22 07:53:00,
2013-01-22 02:55:00,24.8,12.5,30.13,West,273,9.2,9.2,59,0.00,,SCT,0.00,WeatherDisplay:10.37,2013-01-22 07:55:00,
2013-01-22 02:57:00,24.8,12.5,30.13,WSW,247,8.0,8.0,59,0.00,,SCT,0.00,WeatherDisplay:10.37,2013-01-22 07:57:00,
2013-01-22 02:58:00,24.7,12.4,30.14,WSW,257,9.2,9.2,59,0.00,,SCT,0.00,WeatherDisplay:10.37,2013-01-22 07:58:00,
2013-01-22 03:02:00,24.7,12.4,30.14,West,265,5.8,5.8,59,0.00,,SCT,0.00,WeatherDisplay:10.37,2013-01-22 08:02:00,
2013-01-22 03:03:00,24.7,12.4,30.14,West,269,8.1,8.1,59,0.00,,SCT,0.00,WeatherDisplay:10.37,2013-01-22 08:03:00,
2013-01-22 03:04:00,24.5,12.2,30.14,West,269,11.5,11.5,59,0.00,,SCT,0.00,WeatherDisplay:10.37,2013-01-22 08:04:00,
2013-01-22 03:09:00,24.5,12.2,30.14,West,266,6.9,6.9,59,0.00,CLR,SCT,0.00,WeatherDisplay:10.37,2013-01-22 08:09:00,
2013-01-22 03:14:00,24.4,12.1,30.14,West,269,8.0,8.0,59,0.00,CLR,SCT,0.00,WeatherDisplay:10.37,2013-01-22 08:14:00,
2013-01-22 03:16:00,24.2,11.9,30.13,West,270,9.2,9.2,59,0.00,CLR,SCT,0.00,WeatherDisplay:10.37,2013-01-22 08:16:00,
2013-01-22 03:19:00,24.2,11.9,30.14,West,264,4.6,4.6,59,0.00,CLR,SCT,0.00,WeatherDisplay:10.37,2013-01-22 08:19:00,
2013-01-22 03:24:00,24.1,11.8,30.14,West,275,8.1,8.1,59,0.00,CLR,SCT,0.00,WeatherDisplay:10.37,2013-01-22 08:24:00,
2013-01-22 03:27:00,24.1,11.8,30.14,West,269,9.0,9.0,59,0.00,CLR,SCT,0.00,WeatherDisplay:10.37,2013-01-22 08:27:00,
2013-01-22 03:29:00,23.9,11.6,30.14,West,271,6.9,6.9,59,0.00,CLR,SCT,0.00,WeatherDisplay:10.37,2013-01-22 08:29:00,
2013-01-22 03:30:00,23.9,11.3,30.14,West,271,6.9,6.9,58,0.00,CLR,SCT,0.00,WeatherDisplay:10.37,2013-01-22 08:30:00,
2013-01-22 03:31:00,23.9,11.6,30.14,West,273,4.0,4.0,59,0.00,CLR,SCT,0.00,WeatherDisplay:10.37,2013-01-22 08:31:00,
2013-01-22 03:32:00,23.9,11.6,30.14,West,273,5.0,5.0,59,0.00,CLR,SCT,0.00,WeatherDisplay:10.37,2013-01-22 08:32:00,
2013-01-22 03:36:00,23.9,11.6,30.14,West,270,11.5,11.5,59,0.00,CLR,SCT,0.00,WeatherDisplay:10.37,2013-01-22 08:36:00,
2013-01-22 03:37:00,23.8,11.2,30.14,West,266,11.5,11.5,58,0.00,CLR,SCT,0.00,WeatherDisplay:10.37,2013-01-22 08:37:00,
2013-01-22 03:38:00,23.8,11.2,30.14,West,270,10.4,10.4,58,0.00,CLR,SCT,0.00,WeatherDisplay:10.37,2013-01-22 08:38:00,
2013-01-22 03:41:00,23.8,11.2,30.14,West,281,10.4,10.4,58,0.00,CLR,SCT,0.00,WeatherDisplay:10.37,2013-01-22 08:41:00,
2013-01-22 03:42:00,23.8,11.2,30.14,West,263,11.5,11.5,58,0.00,CLR,SCT,0.00,WeatherDisplay:10.37,2013-01-22 08:42:00,
2013-01-22 03:43:00,23.8,11.2,30.14,West,262,10.4,10.4,58,0.00,CLR,SCT,0.00,WeatherDisplay:10.37,2013-01-22 08:43:00,
2013-01-22 03:45:00,23.8,11.2,30.14,WNW,288,6.9,6.9,58,0.00,CLR,SCT,0.00,WeatherDisplay:10.37,2013-01-22 08:45:00,
2013-01-22 03:47:00,23.8,11.2,30.14,West,269,8.1,8.1,58,0.00,CLR,SCT,0.00,WeatherDisplay:10.37,2013-01-22 08:47:00,
2013-01-22 03:49:00,23.8,11.2,30.14,WNW,286,10.4,10.4,58,0.00,CLR,SCT,0.00,WeatherDisplay:10.37,2013-01-22 08:49:00,
2013-01-22 03:52:00,23.8,11.2,30.14,West,263,11.0,11.0,58,0.00,CLR,SCT,0.00,WeatherDisplay:10.37,2013-01-22 08:52:00,
2013-01-22 03:57:00,23.6,11.0,30.14,West,271,6.9,6.9,58,0.00,CLR,SCT,0.00,WeatherDisplay:10.37,2013-01-22 08:57:00,
2013-01-22 04:02:00,23.6,11.0,30.14,West,271,6.0,6.0,58,0.00,CLR,SCT,0.00,WeatherDisplay:10.37,2013-01-22 09:02:00,
2013-01-22 04:03:00,23.5,10.9,30.14,West,261,6.9,6.9,58,0.00,CLR,SCT,0.00,WeatherDisplay:10.37,2013-01-22 09:03:00,
2013-01-22 04:04:00,23.5,10.9,30.14,West,261,3.5,3.5,58,0.00,CLR,SCT,0.00,WeatherDisplay:10.37,2013-01-22 09:04:00,
2013-01-22 04:07:00,23.3,10.7,30.14,West,273,6.0,6.0,58,0.00,CLR,SCT,0.00,WeatherDisplay:10.37,2013-01-22 09:07:00,
2013-01-22 04:09:00,23.3,10.7,30.15,West,273,5.8,5.8,58,0.00,CLR,SCT,0.00,WeatherDisplay:10.37,2013-01-22 09:09:00,
2013-01-22 04:11:00,23.3,10.7,30.15,West,273,5.0,5.0,58,0.00,CLR,SCT,0.00,WeatherDisplay:10.37,2013-01-22 09:11:00,
2013-01-22 04:15:00,23.2,10.6,30.15,West,266,9.2,9.2,58,0.00,CLR,SCT,0.00,WeatherDisplay:10.37,2013-01-22 09:15:00,
2013-01-22 04:16:00,23.2,10.6,30.15,West,262,11.5,11.5,58,0.00,CLR,SCT,0.00,WeatherDisplay:10.37,2013-01-22 09:16:00,
2013-01-22 04:17:00,23.2,10.6,30.15,West,269,11.5,11.5,58,0.00,CLR,SCT,0.00,WeatherDisplay:10.37,2013-01-22 09:17:00,
2013-01-22 04:21:00,23.0,10.4,30.15,West,265,10.0,10.0,58,0.00,CLR,SCT,0.00,WeatherDisplay:10.37,2013-01-22 09:21:00,
2013-01-22 04:22:00,23.0,10.4,30.15,WSW,255,11.5,11.5,58,0.00,CLR,SCT,0.00,WeatherDisplay:10.37,2013-01-22 09:22:00,
2013-01-22 04:23:00,23.0,10.0,30.15,West,261,10.4,10.4,57,0.00,CLR,SCT,0.00,WeatherDisplay:10.37,2013-01-22 09:23:00,
2013-01-22 04:26:00,23.0,10.4,30.15,WNW,283,10.4,10.4,58,0.00,CLR,SCT,0.00,WeatherDisplay:10.37,2013-01-22 09:26:00,
2013-01-22 04:27:00,23.0,10.4,30.15,West,265,10.4,10.4,58,0.00,CLR,SCT,0.00,WeatherDisplay:10.37,2013-01-22 09:27:00,
2013-01-22 04:31:00,23.0,10.0,30.15,WSW,256,11.5,11.5,57,0.00,CLR,SCT,0.00,WeatherDisplay:10.37,2013-01-22 09:31:00,
2013-01-22 04:33:00,22.9,9.9,30.15,West,265,10.4,10.4,57,0.00,CLR,SCT,0.00,WeatherDisplay:10.37,2013-01-22 09:33:00,
2013-01-22 04:35:00,22.9,10.3,30.15,West,259,5.8,5.8,58,0.00,CLR,SCT,0.00,WeatherDisplay:10.37,2013-01-22 09:35:00,
2013-01-22 04:38:00,22.9,10.3,30.15,West,260,6.9,6.9,58,0.00,CLR,SCT,0.00,WeatherDisplay:10.37,2013-01-22 09:38:00,
2013-01-22 04:40:00,22.7,10.1,30.15,WSW,255,6.9,6.9,58,0.00,CLR,SCT,0.00,WeatherDisplay:10.37,2013-01-22 09:40:00,
2013-01-22 04:41:00,22.7,10.1,30.15,West,269,8.0,8.0,58,0.00,CLR,SCT,0.00,WeatherDisplay:10.37,2013-01-22 09:41:00,
2013-01-22 04:42:00,22.7,10.1,30.15,WSW,258,10.4,10.4,58,0.00,CLR,SCT,0.00,WeatherDisplay:10.37,2013-01-22 09:42:00,
2013-01-22 04:43:00,22.7,10.1,30.15,West,260,9.2,9.2,58,0.00,CLR,SCT,0.00,WeatherDisplay:10.37,2013-01-22 09:43:00,
2013-01-22 04:47:00,22.5,9.9,30.15,WSW,254,12.0,12.0,58,0.00,CLR,SCT,0.00,WeatherDisplay:10.37,2013-01-22 09:47:00,
2013-01-22 04:48:00,22.5,9.5,30.15,West,265,12.7,12.7,57,0.00,CLR,SCT,0.00,WeatherDisplay:10.37,2013-01-22 09:48:00,
2013-01-22 04:50:00,22.5,9.9,30.15,WSW,257,8.1,8.1,58,0.00,CLR,SCT,0.00,WeatherDisplay:10.37,2013-01-22 09:50:00,
2013-01-22 04:52:00,22.5,9.5,30.15,WSW,254,11.5,11.5,57,0.00,CLR,SCT,0.00,WeatherDisplay:10.37,2013-01-22 09:52:00,
2013-01-22 04:55:00,22.5,9.5,30.15,WSW,250,10.0,10.0,57,0.00,CLR,SCT,0.00,WeatherDisplay:10.37,2013-01-22 09:55:00,
2013-01-22 04:56:00,22.5,9.5,30.15,West,261,10.4,10.4,57,0.00,CLR,SCT,0.00,WeatherDisplay:10.37,2013-01-22 09:56:00,
2013-01-22 04:59:00,22.5,9.5,30.16,West,264,7.0,7.0,57,0.00,CLR,SCT,0.00,WeatherDisplay:10.37,2013-01-22 09:59:00,
2013-01-22 05:00:00,22.4,9.8,30.16,West,264,6.9,6.9,58,0.00,CLR,SCT,0.00,WeatherDisplay:10.37,2013-01-22 10:00:00,
2013-01-22 05:01:00,22.4,9.8,30.16,West,259,5.0,5.0,58,0.00,CLR,SCT,0.00,WeatherDisplay:10.37,2013-01-22 10:01:00,
2013-01-22 05:03:00,22.4,9.8,30.16,WSW,238,9.2,9.2,58,0.00,CLR,SCT,0.00,WeatherDisplay:10.37,2013-01-22 10:03:00,
2013-01-22 05:06:00,22.2,9.3,30.16,WSW,248,10.4,10.4,57,0.00,CLR,SCT,0.00,WeatherDisplay:10.37,2013-01-22 10:06:00,
2013-01-22 05:08:00,22.2,9.3,30.16,WSW,256,10.4,10.4,57,0.00,CLR,SCT,0.00,WeatherDisplay:10.37,2013-01-22 10:08:00,
2013-01-22 05:09:00,22.2,9.3,30.16,WSW,255,8.1,8.1,57,0.00,CLR,SCT,0.00,WeatherDisplay:10.37,2013-01-22 10:09:00,
2013-01-22 05:11:00,22.2,9.7,30.16,SW,230,5.8,5.8,58,0.00,CLR,SCT,0.00,WeatherDisplay:10.37,2013-01-22 10:11:00,
2013-01-22 05:14:00,22.1,9.6,30.16,WSW,246,6.9,6.9,58,0.00,CLR,SCT,0.00,WeatherDisplay:10.37,2013-01-22 10:14:00,
2013-01-22 05:15:00,22.1,9.6,30.17,WSW,246,4.6,4.6,58,0.00,CLR,SCT,0.00,WeatherDisplay:10.37,2013-01-22 10:15:00,
2013-01-22 05:16:00,21.9,9.4,30.17,WSW,243,7.0,7.0,58,0.00,CLR,SCT,0.00,WeatherDisplay:10.37,2013-01-22 10:16:00,
2013-01-22 05:18:00,21.9,9.4,30.17,WSW,238,9.2,9.2,58,0.00,CLR,SCT,0.00,WeatherDisplay:10.37,2013-01-22 10:18:00,
2013-01-22 05:21:00,21.9,9.4,30.17,WSW,248,8.0,8.0,58,0.00,CLR,SCT,0.00,WeatherDisplay:10.37,2013-01-22 10:21:00,
2013-01-22 05:23:00,21.8,9.3,30.17,WSW,248,9.2,9.2,58,0.00,CLR,SCT,0.00,WeatherDisplay:10.37,2013-01-22 10:23:00,
2013-01-22 05:24:00,21.8,9.3,30.16,WSW,248,5.8,5.8,58,0.00,CLR,SCT,0.00,WeatherDisplay:10.37,2013-01-22 10:24:00,
2013-01-22 05:26:00,21.8,9.3,30.17,WSW,249,6.0,6.0,58,0.00,CLR,SCT,0.00,WeatherDisplay:10.37,2013-01-22 10:26:00,
2013-01-22 05:29:00,21.6,9.1,30.17,WSW,250,10.4,10.4,58,0.00,CLR,SCT,0.00,WeatherDisplay:10.37,2013-01-22 10:29:00,
2013-01-22 05:32:00,21.6,9.1,30.17,WSW,255,9.2,9.2,58,0.00,CLR,SCT,0.00,WeatherDisplay:10.37,2013-01-22 10:32:00,
2013-01-22 05:34:00,21.6,9.1,30.17,WSW,246,6.9,6.9,58,0.00,CLR,SCT,0.00,WeatherDisplay:10.37,2013-01-22 10:34:00,
2013-01-22 05:39:00,21.6,9.1,30.17,WSW,240,6.0,6.0,58,0.00,CLR,SCT,0.00,WeatherDisplay:10.37,2013-01-22 10:39:00,
2013-01-22 05:40:00,21.6,9.1,30.17,West,261,7.0,7.0,58,0.00,CLR,SCT,0.00,WeatherDisplay:10.37,2013-01-22 10:40:00,
2013-01-22 05:45:00,21.4,8.9,30.17,WSW,244,6.0,6.0,58,0.00,CLR,SCT,0.00,WeatherDisplay:10.37,2013-01-22 10:45:00,
2013-01-22 05:46:00,21.4,8.9,30.17,West,263,10.4,10.4,58,0.00,CLR,SCT,0.00,WeatherDisplay:10.37,2013-01-22 10:46:00,
2013-01-22 05:50:00,21.4,8.5,30.17,West,268,11.5,11.5,57,0.00,CLR,SCT,0.00,WeatherDisplay:10.37,2013-01-22 10:50:00,
2013-01-22 05:53:00,21.3,8.8,30.17,WSW,253,10.4,10.4,58,0.00,CLR,SCT,0.00,WeatherDisplay:10.37,2013-01-22 10:53:00,
2013-01-22 05:55:00,21.3,8.8,30.17,WSW,256,6.9,6.9,58,0.00,CLR,SCT,0.00,WeatherDisplay:10.37,2013-01-22 10:55:00,
2013-01-22 06:00:00,21.3,8.8,30.17,West,270,11.5,11.5,58,0.00,CLR,SCT,0.00,WeatherDisplay:10.37,2013-01-22 11:00:00,
2013-01-22 06:06:00,21.1,8.6,30.17,WSW,254,9.2,9.2,58,0.00,CLR,SCT,0.00,WeatherDisplay:10.37,2013-01-22 11:06:00,
2013-01-22 06:11:00,21.1,8.6,30.18,SW,227,5.0,5.0,58,0.00,CLR,SCT,0.00,WeatherDisplay:10.37,2013-01-22 11:11:00,
2013-01-22 06:13:00,21.1,9.0,30.18,SW,236,5.8,5.8,59,0.00,CLR,SCT,0.00,WeatherDisplay:10.37,2013-01-22 11:13:00,
2013-01-22 06:17:00,21.0,8.9,30.18,WSW,248,3.5,3.9,59,0.00,CLR,SCT,0.00,WeatherDisplay:10.37,2013-01-22 11:17:00,
2013-01-22 06:22:00,21.0,8.9,30.18,WSW,251,10.4,10.4,59,0.00,CLR,SCT,0.00,WeatherDisplay:10.37,2013-01-22 11:22:00,
2013-01-22 06:27:00,20.8,8.7,30.19,WSW,253,9.2,9.2,59,0.00,CLR,SCT,0.00,WeatherDisplay:10.37,2013-01-22 11:27:00,
2013-01-22 06:28:00,20.8,8.7,30.19,SW,232,10.0,10.0,59,0.00,CLR,SCT,0.00,WeatherDisplay:10.37,2013-01-22 11:28:00,
2013-01-22 06:32:00,20.8,8.7,30.19,WSW,257,6.9,6.9,59,0.00,CLR,SCT,0.00,WeatherDisplay:10.37,2013-01-22 11:32:00,
2013-01-22 06:33:00,20.8,8.7,30.19,WSW,248,9.0,9.0,59,0.00,CLR,SCT,0.00,WeatherDisplay:10.37,2013-01-22 11:33:00,
2013-01-22 06:39:00,20.6,8.5,30.19,WSW,258,4.0,4.0,59,0.00,CLR,SCT,0.00,WeatherDisplay:10.37,2013-01-22 11:39:00,
2013-01-22 06:40:00,20.6,8.5,30.19,West,260,9.2,9.2,59,0.00,CLR,SCT,0.00,WeatherDisplay:10.37,2013-01-22 11:40:00,
2013-01-22 06:42:00,20.6,8.5,30.19,West,261,6.0,6.0,59,0.00,CLR,SCT,0.00,WeatherDisplay:10.37,2013-01-22 11:42:00,
2013-01-22 06:46:00,20.5,8.4,30.20,West,263,6.0,6.0,59,0.00,CLR,SCT,0.00,WeatherDisplay:10.37,2013-01-22 11:46:00,
2013-01-22 06:48:00,20.5,8.4,30.20,West,263,5.8,5.8,59,0.00,CLR,SCT,0.00,WeatherDisplay:10.37,2013-01-22 11:48:00,
2013-01-22 06:51:00,20.5,8.4,30.20,West,261,5.8,5.8,59,0.00,CLR,SCT,0.00,WeatherDisplay:10.37,2013-01-22 11:51:00,
2013-01-22 06:52:00,20.5,8.4,30.20,West,261,5.8,5.8,59,0.00,CLR,SCT,0.00,WeatherDisplay:10.37,2013-01-22 11:52:00,
2013-01-22 06:55:00,20.3,8.6,30.21,West,261,5.0,5.0,60,0.00,CLR,SCT,0.00,WeatherDisplay:10.37,2013-01-22 11:55:00,
2013-01-22 06:56:00,20.3,8.6,30.21,West,261,5.8,5.8,60,0.00,CLR,SCT,0.00,WeatherDisplay:10.37,2013-01-22 11:56:00,
2013-01-22 06:59:00,20.2,8.5,30.21,West,261,5.8,5.8,60,0.00,CLR,SCT,0.00,WeatherDisplay:10.37,2013-01-22 11:59:00,
2013-01-22 07:01:00,20.2,8.5,30.21,West,260,6.9,6.9,60,0.00,CLR,SCT,0.00,WeatherDisplay:10.37,2013-01-22 12:01:00,
2013-01-22 07:03:00,20.2,8.5,30.21,WSW,253,6.0,6.0,60,0.00,CLR,SCT,0.00,WeatherDisplay:10.37,2013-01-22 12:03:00,
2013-01-22 07:06:00,20.2,8.5,30.21,WSW,245,6.9,6.9,60,0.00,CLR,SCT,0.00,WeatherDisplay:10.37,2013-01-22 12:06:00,
2013-01-22 07:07:00,20.2,8.5,30.21,West,264,6.0,6.0,60,0.00,CLR,SCT,0.00,WeatherDisplay:10.37,2013-01-22 12:07:00,
2013-01-22 07:12:00,20.0,8.3,30.21,West,259,4.0,4.0,60,0.00,CLR,SCT,0.00,WeatherDisplay:10.37,2013-01-22 12:12:00,
2013-01-22 07:16:00,20.0,8.3,30.22,West,259,5.0,5.0,60,0.00,CLR,SCT,0.00,WeatherDisplay:10.37,2013-01-22 12:16:00,
2013-01-22 07:17:00,19.9,8.6,30.22,West,259,4.6,4.6,61,0.00,CLR,SCT,0.00,WeatherDisplay:10.37,2013-01-22 12:17:00,
2013-01-22 07:22:00,19.7,8.4,30.22,West,260,4.6,4.6,61,0.00,CLR,SCT,0.00,WeatherDisplay:10.37,2013-01-22 12:22:00,
2013-01-22 07:26:00,19.7,8.4,30.22,West,260,4.0,4.0,61,0.00,CLR,SCT,0.00,WeatherDisplay:10.37,2013-01-22 12:26:00,
2013-01-22 07:27:00,19.7,8.4,30.22,West,260,4.0,4.0,61,0.00,CLR,SCT,0.00,WeatherDisplay:10.37,2013-01-22 12:27:00,
2013-01-22 07:32:00,19.5,8.2,30.22,West,260,3.5,3.5,61,0.00,CLR,SCT,0.00,WeatherDisplay:10.37,2013-01-22 12:32:00,
2013-01-22 07:33:00,19.5,8.2,30.22,West,260,3.5,3.5,61,0.00,CLR,SCT,0.00,WeatherDisplay:10.37,2013-01-22 12:33:00,
2013-01-22 07:36:00,19.5,8.6,30.22,West,261,5.0,5.0,62,0.00,CLR,SCT,0.00,WeatherDisplay:10.37,2013-01-22 12:36:00,
2013-01-22 07:38:00,19.5,8.6,30.22,West,261,4.0,4.0,62,0.00,CLR,SCT,0.00,WeatherDisplay:10.37,2013-01-22 12:38:00,
2013-01-22 07:42:00,19.4,8.5,30.22,West,261,4.6,4.6,62,0.00,CLR,SCT,0.00,WeatherDisplay:10.37,2013-01-22 12:42:00,
2013-01-22 07:43:00,19.4,8.5,30.22,West,261,5.0,5.0,62,0.00,CLR,SCT,0.00,WeatherDisplay:10.37,2013-01-22 12:43:00,
2013-01-22 07:44:00,19.4,8.5,30.22,West,261,5.8,5.8,62,0.00,CLR,SCT,0.00,WeatherDisplay:10.37,2013-01-22 12:44:00,
2013-01-22 07:46:00,19.4,8.5,30.23,West,261,5.0,5.0,62,0.00,CLR,SCT,0.00,WeatherDisplay:10.37,2013-01-22 12:46:00,
2013-01-22 07:49:00,19.4,8.5,30.23,West,262,5.8,5.8,62,0.00,CLR,SCT,0.00,WeatherDisplay:10.37,2013-01-22 12:49:00,
2013-01-22 07:51:00,19.4,8.5,30.23,West,263,5.8,5.8,62,0.00,CLR,SCT,0.00,WeatherDisplay:10.37,2013-01-22 12:51:00,
2013-01-22 07:54:00,19.4,8.5,30.23,West,263,4.6,4.6,62,0.00,CLR,SCT,0.00,WeatherDisplay:10.37,2013-01-22 12:54:00,
2013-01-22 07:56:00,19.4,8.5,30.23,West,263,5.8,5.8,62,0.00,CLR,SCT,0.00,WeatherDisplay:10.37,2013-01-22 12:56:00,
2013-01-22 07:59:00,19.4,8.5,30.23,West,263,6.0,6.0,62,0.00,CLR,SCT,0.00,WeatherDisplay:10.37,2013-01-22 12:59:00,
2013-01-22 08:01:00,19.4,8.5,30.23,West,263,5.8,5.8,62,0.00,CLR,SCT,0.00,WeatherDisplay:10.37,2013-01-22 13:01:00,
2013-01-22 08:06:00,19.4,8.8,30.23,SW,225,7.0,7.0,63,0.00,CLR,SCT,0.00,WeatherDisplay:10.37,2013-01-22 13:06:00,
2013-01-22 08:09:00,19.5,8.6,30.23,WSW,250,6.9,6.9,62,0.00,CLR,SCT,0.00,WeatherDisplay:10.37,2013-01-22 13:09:00,
2013-01-22 08:10:00,19.5,8.6,30.23,WSW,250,6.9,6.9,62,0.00,CLR,SCT,0.00,WeatherDisplay:10.37,2013-01-22 13:10:00,
2013-01-22 08:11:00,19.5,8.6,30.23,WSW,251,7.0,7.0,62,0.00,CLR,SCT,0.00,WeatherDisplay:10.37,2013-01-22 13:11:00,
2013-01-22 08:14:00,19.7,8.8,30.24,WSW,248,8.1,8.1,62,0.00,CLR,SCT,0.00,WeatherDisplay:10.37,2013-01-22 13:14:00,
2013-01-22 08:16:00,19.9,9.0,30.24,WSW,248,10.4,10.4,62,0.00,CLR,SCT,0.00,WeatherDisplay:10.37,2013-01-22 13:16:00,
2013-01-22 08:21:00,20.0,9.1,30.24,WSW,253,9.2,9.2,62,0.00,CLR,SCT,0.00,WeatherDisplay:10.37,2013-01-22 13:21:00,
2013-01-22 08:23:00,20.0,9.1,30.24,WSW,257,10.4,10.4,62,0.00,CLR,SCT,0.00,WeatherDisplay:10.37,2013-01-22 13:23:00,
2013-01-22 08:24:00,20.2,9.2,30.24,West,264,11.5,11.5,62,0.00,CLR,SCT,0.00,WeatherDisplay:10.37,2013-01-22 13:24:00,
2013-01-22 08:26:00,20.2,9.2,30.24,WSW,251,9.2,9.2,62,0.00,CLR,SCT,0.00,WeatherDisplay:10.37,2013-01-22 13:26:00,
2013-01-22 08:29:00,20.3,9.0,30.24,WSW,258,11.5,11.5,61,0.00,CLR,SCT,0.00,WeatherDisplay:10.37,2013-01-22 13:29:00,
2013-01-22 08:30:00,20.5,9.2,30.24,WSW,242,11.0,11.0,61,0.00,CLR,SCT,0.00,WeatherDisplay:10.37,2013-01-22 13:30:00,
2013-01-22 08:31:00,20.5,9.2,30.24,West,270,11.5,11.5,61,0.00,CLR,SCT,0.00,WeatherDisplay:10.37,2013-01-22 13:31:00,
2013-01-22 08:36:00,20.6,9.3,30.24,West,271,9.2,9.2,61,0.00,CLR,SCT,0.00,WeatherDisplay:10.37,2013-01-22 13:36:00,
2013-01-22 08:38:00,20.8,9.5,30.24,West,269,7.0,7.0,61,0.00,CLR,SCT,0.00,WeatherDisplay:10.37,2013-01-22 13:38:00,
2013-01-22 08:39:00,20.8,9.5,30.24,West,268,6.9,6.9,61,0.00,CLR,SCT,0.00,WeatherDisplay:10.37,2013-01-22 13:39:00,
2013-01-22 08:40:00,20.8,9.5,30.24,WSW,248,9.0,9.0,61,0.00,CLR,SCT,0.00,WeatherDisplay:10.37,2013-01-22 13:40:00,
2013-01-22 08:43:00,21.0,9.3,30.25,West,261,9.2,9.2,60,0.00,CLR,SCT,0.00,WeatherDisplay:10.37,2013-01-22 13:43:00,
2013-01-22 08:44:00,21.0,9.3,30.25,West,262,11.5,11.5,60,0.00,CLR,SCT,0.00,WeatherDisplay:10.37,2013-01-22 13:44:00,
2013-01-22 08:45:00,21.0,9.3,30.25,West,267,10.4,10.4,60,0.00,CLR,SCT,0.00,WeatherDisplay:10.37,2013-01-22 13:45:00,
2013-01-22 08:50:00,21.1,9.0,30.24,WSW,247,11.5,11.5,59,0.00,CLR,SCT,0.00,WeatherDisplay:10.37,2013-01-22 13:50:00,
2013-01-22 08:51:00,21.1,9.4,30.24,WSW,255,10.4,10.4,60,0.00,CLR,SCT,0.00,WeatherDisplay:10.37,2013-01-22 13:51:00,
2013-01-22 08:55:00,21.3,9.6,30.24,West,274,6.9,6.9,60,0.00,CLR,SCT,0.00,WeatherDisplay:10.37,2013-01-22 13:55:00,
2013-01-22 08:56:00,21.3,9.6,30.24,West,274,6.9,6.9,60,0.00,CLR,SCT,0.00,WeatherDisplay:10.37,2013-01-22 13:56:00,
2013-01-22 08:59:00,21.4,9.7,30.24,West,275,10.0,10.0,60,0.00,CLR,SCT,0.00,WeatherDisplay:10.37,2013-01-22 13:59:00,
2013-01-22 09:00:00,21.4,9.3,30.24,West,281,10.4,10.4,59,0.00,CLR,SCT,0.00,WeatherDisplay:10.37,2013-01-22 14:00:00,
2013-01-22 09:03:00,21.6,9.8,30.24,NW,306,9.2,9.2,60,0.00,CLR,SCT,0.00,WeatherDisplay:10.37,2013-01-22 14:03:00,
2013-01-22 09:05:00,21.6,9.8,30.24,WNW,291,5.8,5.8,60,0.00,CLR,SCT,0.00,WeatherDisplay:10.37,2013-01-22 14:05:00,
2013-01-22 09:07:00,21.8,10.0,30.24,WNW,296,4.6,4.6,60,0.00,CLR,SCT,0.00,WeatherDisplay:10.37,2013-01-22 14:07:00,
2013-01-22 09:09:00,21.8,10.0,30.24,West,265,9.0,9.0,60,0.00,CLR,SCT,0.00,WeatherDisplay:10.37,2013-01-22 14:09:00,
2013-01-22 09:10:00,21.8,9.7,30.25,West,266,11.0,11.0,59,0.00,CLR,SCT,0.00,WeatherDisplay:10.37,2013-01-22 14:10:00,
2013-01-22 09:11:00,21.8,9.3,30.25,West,262,12.7,12.7,58,0.00,CLR,SCT,0.00,WeatherDisplay:10.37,2013-01-22 14:11:00,
2013-01-22 09:14:00,21.8,8.9,30.25,West,263,11.5,11.5,57,0.00,CLR,SCT,0.00,WeatherDisplay:10.37,2013-01-22 14:14:00,
2013-01-22 09:15:00,21.8,8.9,30.25,West,281,11.5,11.5,57,0.00,CLR,SCT,0.00,WeatherDisplay:10.37,2013-01-22 14:15:00,
2013-01-22 09:17:00,21.8,8.5,30.25,West,281,11.5,11.5,56,0.00,CLR,SCT,0.00,WeatherDisplay:10.37,2013-01-22 14:17:00,
2013-01-22 09:19:00,21.8,8.5,30.25,West,259,11.5,11.5,56,0.00,CLR,SCT,0.00,WeatherDisplay:10.37,2013-01-22 14:19:00,
2013-01-22 09:20:00,21.8,8.9,30.25,West,261,9.2,9.2,57,0.00,CLR,SCT,0.00,WeatherDisplay:10.37,2013-01-22 14:20:00,
2013-01-22 09:21:00,21.9,9.0,30.25,West,275,6.9,6.9,57,0.00,CLR,SCT,0.00,WeatherDisplay:10.37,2013-01-22 14:21:00,
2013-01-22 09:25:00,21.9,8.2,30.26,West,269,11.5,11.5,55,0.00,CLR,SCT,0.00,WeatherDisplay:10.37,2013-01-22 14:25:00,
2013-01-22 09:26:00,21.9,8.6,30.26,WSW,245,11.5,11.5,56,0.00,CLR,SCT,0.00,WeatherDisplay:10.37,2013-01-22 14:26:00,
2013-01-22 09:27:00,21.9,8.6,30.26,West,273,10.4,10.4,56,0.00,CLR,SCT,0.00,WeatherDisplay:10.37,2013-01-22 14:27:00,
2013-01-22 09:30:00,21.9,8.2,30.26,West,259,11.5,11.5,55,0.00,CLR,SCT,0.00,WeatherDisplay:10.37,2013-01-22 14:30:00,
2013-01-22 09:32:00,22.1,8.4,30.26,West,277,11.5,11.5,55,0.00,CLR,SCT,0.00,WeatherDisplay:10.37,2013-01-22 14:32:00,
2013-01-22 09:33:00,22.1,8.4,30.26,West,274,6.0,6.0,55,0.00,CLR,SCT,0.00,WeatherDisplay:10.37,2013-01-22 14:33:00,
2013-01-22 09:36:00,22.2,7.6,30.26,West,263,12.7,12.7,53,0.00,CLR,SCT,0.00,WeatherDisplay:10.37,2013-01-22 14:36:00,
2013-01-22 09:39:00,22.2,8.5,30.26,WNW,286,10.4,10.4,55,0.00,CLR,SCT,0.00,WeatherDisplay:10.37,2013-01-22 14:39:00,
2013-01-22 09:43:00,22.5,8.7,30.26,West,269,10.4,10.4,55,0.00,CLR,SCT,0.00,WeatherDisplay:10.37,2013-01-22 14:43:00,
2013-01-22 09:44:00,22.5,8.7,30.26,NW,315,9.2,9.2,55,0.00,CLR,SCT,0.00,WeatherDisplay:10.37,2013-01-22 14:44:00,
2013-01-22 09:46:00,22.7,9.3,30.26,WNW,299,8.1,8.1,56,0.00,CLR,SCT,0.00,WeatherDisplay:10.37,2013-01-22 14:46:00,
2013-01-22 09:48:00,22.7,8.9,30.26,WNW,290,10.4,10.4,55,0.00,CLR,SCT,0.00,WeatherDisplay:10.37,2013-01-22 14:48:00,
2013-01-22 09:53:00,22.9,8.7,30.26,West,278,12.7,12.7,54,0.00,CLR,SCT,0.00,WeatherDisplay:10.37,2013-01-22 14:53:00,
2013-01-22 09:54:00,22.9,8.7,30.26,WNW,290,9.2,9.2,54,0.00,CLR,SCT,0.00,WeatherDisplay:10.37,2013-01-22 14:54:00,
2013-01-22 09:57:00,22.9,8.7,30.26,West,267,9.2,9.2,54,0.00,CLR,SCT,0.00,WeatherDisplay:10.37,2013-01-22 14:57:00,
2013-01-22 09:58:00,22.9,8.3,30.27,West,268,9.2,9.2,53,0.00,CLR,SCT,0.00,WeatherDisplay:10.37,2013-01-22 14:58:00,
2013-01-22 09:59:00,22.9,8.3,30.26,WSW,247,14.0,14.0,53,0.00,CLR,SCT,0.00,WeatherDisplay:10.37,2013-01-22 14:59:00,
2013-01-22 10:00:00,23.0,8.0,30.26,West,278,13.8,13.8,52,0.00,CLR,SCT,0.00,WeatherDisplay:10.37,2013-01-22 15:00:00,
2013-01-22 10:04:00,23.0,8.4,30.27,West,269,10.0,10.0,53,0.00,CLR,SCT,0.00,WeatherDisplay:10.37,2013-01-22 15:04:00,
2013-01-22 10:06:00,23.0,8.4,30.27,West,259,11.5,11.5,53,0.00,CLR,SCT,0.00,WeatherDisplay:10.37,2013-01-22 15:06:00,
2013-01-22 10:09:00,23.2,7.7,30.27,West,279,12.7,12.7,51,0.00,CLR,SCT,0.00,WeatherDisplay:10.37,2013-01-22 15:09:00,
2013-01-22 10:10:00,23.0,7.1,30.27,West,276,11.5,11.5,50,0.00,CLR,SCT,0.00,WeatherDisplay:10.37,2013-01-22 15:10:00,
2013-01-22 10:14:00,23.0,8.0,30.27,West,263,6.9,6.9,52,0.00,CLR,SCT,0.00,WeatherDisplay:10.37,2013-01-22 15:14:00,
2013-01-22 10:15:00,23.0,8.0,30.27,West,271,9.0,9.0,52,0.00,CLR,SCT,0.00,WeatherDisplay:10.37,2013-01-22 15:15:00,
2013-01-22 10:17:00,23.2,8.2,30.27,WNW,294,9.2,9.2,52,0.00,CLR,SCT,0.00,WeatherDisplay:10.37,2013-01-22 15:17:00,
2013-01-22 10:20:00,23.3,7.8,30.27,West,273,16.0,16.0,51,0.00,CLR,SCT,0.00,WeatherDisplay:10.37,2013-01-22 15:20:00,
2013-01-22 10:23:00,23.3,7.4,30.27,West,267,12.7,12.7,50,0.00,CLR,SCT,0.00,WeatherDisplay:10.37,2013-01-22 15:23:00,
2013-01-22 10:26:00,23.5,7.6,30.27,WNW,284,6.9,6.9,50,0.00,CLR,SCT,0.00,WeatherDisplay:10.37,2013-01-22 15:26:00,
2013-01-22 10:27:00,23.5,7.6,30.27,WNW,287,5.8,5.8,50,0.00,CLR,SCT,0.00,WeatherDisplay:10.37,2013-01-22 15:27:00,
2013-01-22 10:32:00,23.8,8.7,30.28,WNW,292,6.9,6.9,52,0.00,CLR,SCT,0.00,WeatherDisplay:10.37,2013-01-22 15:32:00,
2013-01-22 10:33:00,23.9,8.8,30.28,WNW,292,6.9,6.9,52,0.00,CLR,SCT,0.00,WeatherDisplay:10.37,2013-01-22 15:33:00,
2013-01-22 10:34:00,23.9,8.8,30.28,West,273,6.0,6.0,52,0.00,CLR,SCT,0.00,WeatherDisplay:10.37,2013-01-22 15:34:00,
2013-01-22 10:38:00,24.2,8.7,30.28,West,279,9.2,9.2,51,0.00,CLR,SCT,0.00,WeatherDisplay:10.37,2013-01-22 15:38:00,
2013-01-22 10:39:00,24.2,8.7,30.28,West,269,12.0,12.0,51,0.00,CLR,SCT,0.00,WeatherDisplay:10.37,2013-01-22 15:39:00,
2013-01-22 10:40:00,24.2,8.2,30.28,West,273,16.1,16.1,50,0.00,CLR,SCT,0.00,WeatherDisplay:10.37,2013-01-22 15:40:00,
2013-01-22 10:45:00,24.2,8.2,30.28,WNW,299,6.9,6.9,50,0.00,CLR,SCT,0.00,WeatherDisplay:10.37,2013-01-22 15:45:00,
2013-01-22 10:47:00,24.4,8.8,30.28,NNW,328,4.6,4.6,51,0.00,CLR,SCT,0.00,WeatherDisplay:10.37,2013-01-22 15:47:00,
2013-01-22 10:50:00,24.5,9.4,30.28,West,271,10.4,10.4,52,0.00,CLR,SCT,0.00,WeatherDisplay:10.37,2013-01-22 15:50:00,
2013-01-22 10:53:00,24.5,8.5,30.28,West,265,10.4,10.4,50,0.00,CLR,SCT,0.00,WeatherDisplay:10.37,2013-01-22 15:53:00,
2013-01-22 10:57:00,24.5,8.5,30.28,West,277,6.9,6.9,50,0.00,CLR,SCT,0.00,WeatherDisplay:10.37,2013-01-22 15:57:00,
2013-01-22 10:58:00,24.5,8.5,30.27,West,279,6.9,6.9,50,0.00,CLR,SCT,0.00,WeatherDisplay:10.37,2013-01-22 15:58:00,
2013-01-22 10:59:00,24.5,8.5,30.28,West,281,6.0,6.0,50,0.00,CLR,SCT,0.00,WeatherDisplay:10.37,2013-01-22 15:59:00,
2013-01-22 11:02:00,24.7,7.8,30.27,WNW,287,12.7,12.7,48,0.00,CLR,SCT,0.00,WeatherDisplay:10.37,2013-01-22 16:02:00,
2013-01-22 11:07:00,24.7,5.8,30.28,West,267,17.3,17.3,44,0.00,CLR,SCT,0.00,WeatherDisplay:10.37,2013-01-22 16:07:00,
2013-01-22 11:08:00,24.7,6.3,30.28,WNW,284,15.0,15.0,45,0.00,CLR,SCT,0.00,WeatherDisplay:10.37,2013-01-22 16:08:00,
2013-01-22 11:12:00,24.5,6.6,30.28,West,263,13.0,13.0,46,0.00,CLR,SCT,0.00,WeatherDisplay:10.37,2013-01-22 16:12:00,
2013-01-22 11:14:00,24.5,6.6,30.28,West,262,11.5,11.5,46,0.00,CLR,SCT,0.00,WeatherDisplay:10.37,2013-01-22 16:14:00,
2013-01-22 11:15:00,24.4,7.0,30.28,West,259,12.0,12.0,47,0.00,CLR,SCT,0.00,WeatherDisplay:10.37,2013-01-22 16:15:00,
2013-01-22 11:19:00,24.5,7.1,30.28,WNW,282,9.2,9.2,47,0.00,CLR,SCT,0.00,WeatherDisplay:10.37,2013-01-22 16:19:00,
2013-01-22 11:20:00,24.5,7.6,30.28,WNW,296,6.9,6.9,48,0.00,CLR,SCT,0.00,WeatherDisplay:10.37,2013-01-22 16:20:00,
2013-01-22 11:25:00,25.0,6.6,30.28,WNW,290,15.0,15.0,45,0.00,CLR,SCT,0.00,WeatherDisplay:10.37,2013-01-22 16:25:00,
2013-01-22 11:28:00,25.1,7.7,30.28,West,273,9.2,9.2,47,0.00,CLR,SCT,0.00,WeatherDisplay:10.37,2013-01-22 16:28:00,
2013-01-22 11:30:00,25.1,7.7,30.28,West,272,11.5,11.5,47,0.00,CLR,SCT,0.00,WeatherDisplay:10.37,2013-01-22 16:30:00,
2013-01-22 11:31:00,25.1,7.7,30.28,WNW,289,9.2,9.2,47,0.00,CLR,SCT,0.00,WeatherDisplay:10.37,2013-01-22 16:31:00,
2013-01-22 11:32:00,25.1,8.1,30.28,WNW,294,9.2,9.2,48,0.00,CLR,SCT,0.00,WeatherDisplay:10.37,2013-01-22 16:32:00,
2013-01-22 11:37:00,25.4,8.4,30.28,WSW,252,12.0,12.0,48,0.00,CLR,SCT,0.00,WeatherDisplay:10.37,2013-01-22 16:37:00,
2013-01-22 11:38:00,25.4,7.9,30.28,West,280,11.5,11.5,47,0.00,CLR,SCT,0.00,WeatherDisplay:10.37,2013-01-22 16:38:00,
2013-01-22 11:39:00,25.4,7.9,30.28,WSW,256,15.0,15.0,47,0.00,CLR,SCT,0.00,WeatherDisplay:10.37,2013-01-22 16:39:00,
2013-01-22 11:44:00,25.3,6.9,30.28,SW,235,16.1,16.1,45,0.00,CLR,SCT,0.00,WeatherDisplay:10.37,2013-01-22 16:44:00,
2013-01-22 11:47:00,25.1,6.7,30.28,West,262,12.7,12.7,45,0.00,CLR,SCT,0.00,WeatherDisplay:10.37,2013-01-22 16:47:00,
2013-01-22 11:49:00,25.1,6.7,30.28,West,271,12.7,12.7,45,0.00,CLR,SCT,0.00,WeatherDisplay:10.37,2013-01-22 16:49:00,
2013-01-22 11:51:00,25.1,6.7,30.28,WSW,244,17.0,17.0,45,0.00,CLR,SCT,0.00,WeatherDisplay:10.37,2013-01-22 16:51:00,
2013-01-22 11:54:00,25.3,6.4,30.28,West,261,11.5,11.5,44,0.00,CLR,SCT,0.00,WeatherDisplay:10.37,2013-01-22 16:54:00,
2013-01-22 11:57:00,25.3,6.4,30.28,WSW,252,13.8,13.8,44,0.00,CLR,SCT,0.00,WeatherDisplay:10.37,2013-01-22 16:57:00,
2013-01-22 11:59:00,25.4,6.5,30.28,West,273,11.5,11.5,44,0.00,CLR,SCT,0.00,WeatherDisplay:10.37,2013-01-22 16:59:00,
2013-01-22 12:00:00,25.4,7.0,30.28,West,277,10.0,10.0,45,0.00,CLR,SCT,0.00,WeatherDisplay:10.37,2013-01-22 17:00:00,
2013-01-22 12:03:00,25.4,7.0,30.28,WSW,252,13.0,13.0,45,0.00,CLR,SCT,0.00,WeatherDisplay:10.37,2013-01-22 17:03:00,
2013-01-22 12:04:00,25.4,6.5,30.28,West,262,15.0,15.0,44,0.00,CLR,SCT,0.00,WeatherDisplay:10.37,2013-01-22 17:04:00,
2013-01-22 12:05:00,25.4,6.5,30.28,SW,223,13.8,13.8,44,0.00,CLR,SCT,0.00,WeatherDisplay:10.37,2013-01-22 17:05:00,
2013-01-22 12:09:00,25.6,6.2,30.28,WSW,254,17.3,17.3,43,0.00,CLR,SCT,0.00,WeatherDisplay:10.37,2013-01-22 17:09:00,
2013-01-22 12:10:00,25.6,6.7,30.28,West,270,17.0,17.0,44,0.00,CLR,SCT,0.00,WeatherDisplay:10.37,2013-01-22 17:10:00,
2013-01-22 12:11:00,25.6,6.2,30.28,WSW,252,17.3,17.3,43,0.00,CLR,SCT,0.00,WeatherDisplay:10.37,2013-01-22 17:11:00,
2013-01-22 12:15:00,25.4,6.5,30.27,SW,215,13.8,13.8,44,0.00,CLR,SCT,0.00,WeatherDisplay:10.37,2013-01-22 17:15:00,
2013-01-22 12:16:00,25.4,6.5,30.27,SSW,213,12.7,12.7,44,0.00,CLR,SCT,0.00,WeatherDisplay:10.37,2013-01-22 17:16:00,
2013-01-22 12:20:00,25.4,6.5,30.27,WSW,246,13.0,13.0,44,0.00,CLR,SCT,0.00,WeatherDisplay:10.37,2013-01-22 17:20:00,
2013-01-22 12:21:00,25.6,6.2,30.26,West,267,15.0,15.0,43,0.00,CLR,SCT,0.00,WeatherDisplay:10.37,2013-01-22 17:21:00,
2013-01-22 12:26:00,25.6,6.2,30.27,WNW,284,17.3,17.3,43,0.00,CLR,SCT,0.00,WeatherDisplay:10.37,2013-01-22 17:26:00,
2013-01-22 12:31:00,25.7,6.8,30.26,West,281,13.8,13.8,44,0.00,CLR,SCT,0.00,WeatherDisplay:10.37,2013-01-22 17:31:00,
2013-01-22 12:32:00,25.8,7.4,30.26,West,262,10.4,10.4,45,0.00,CLR,SCT,0.00,WeatherDisplay:10.37,2013-01-22 17:32:00,
2013-01-22 12:36:00,26.1,6.1,30.26,West,269,17.0,17.0,42,0.00,CLR,SCT,0.00,WeatherDisplay:10.37,2013-01-22 17:36:00,
2013-01-22 12:38:00,26.1,6.1,30.26,WSW,256,18.4,18.4,42,0.00,CLR,SCT,0.00,WeatherDisplay:10.37,2013-01-22 17:38:00,
2013-01-22 12:42:00,26.3,8.3,30.26,WNW,290,10.4,10.4,46,0.00,CLR,SCT,0.00,WeatherDisplay:10.37,2013-01-22 17:42:00,
2013-01-22 12:43:00,26.3,7.8,30.26,West,267,9.2,9.2,45,0.00,CLR,SCT,0.00,WeatherDisplay:10.37,2013-01-22 17:43:00,
2013-01-22 12:48:00,26.4,6.4,30.26,West,276,19.6,19.6,42,0.00,CLR,SCT,0.00,WeatherDisplay:10.37,2013-01-22 17:48:00,
2013-01-22 12:51:00,26.4,6.4,30.26,WSW,250,17.3,17.3,42,0.00,CLR,SCT,0.00,WeatherDisplay:10.37,2013-01-22 17:51:00,
2013-01-22 12:53:00,26.4,6.4,30.26,West,274,16.1,16.1,42,0.00,CLR,SCT,0.00,WeatherDisplay:10.37,2013-01-22 17:53:00,
2013-01-22 12:57:00,26.4,5.8,30.26,West,278,16.1,16.1,41,0.00,CLR,SCT,0.00,WeatherDisplay:10.37,2013-01-22 17:57:00,
2013-01-22 12:59:00,26.4,5.8,30.26,West,265,13.8,13.8,41,0.00,CLR,SCT,0.00,WeatherDisplay:10.37,2013-01-22 17:59:00,
2013-01-22 13:02:00,26.4,6.9,30.26,West,267,11.5,11.5,43,0.00,CLR,SCT,0.00,WeatherDisplay:10.37,2013-01-22 18:02:00,
2013-01-22 13:04:00,26.4,6.9,30.25,West,266,10.4,10.4,43,0.00,CLR,SCT,0.00,WeatherDisplay:10.37,2013-01-22 18:04:00,
2013-01-22 13:05:00,26.4,6.9,30.25,West,267,15.0,15.0,43,0.00,CLR,SCT,0.00,WeatherDisplay:10.37,2013-01-22 18:05:00,
2013-01-22 13:10:00,26.6,7.1,30.25,WSW,254,12.7,12.7,43,0.00,CLR,SCT,0.00,WeatherDisplay:10.37,2013-01-22 18:10:00,
2013-01-22 13:11:00,26.6,7.6,30.25,NNW,346,10.4,10.4,44,0.00,CLR,SCT,0.00,WeatherDisplay:10.37,2013-01-22 18:11:00,
2013-01-22 13:16:00,27.0,8.0,30.25,West,273,11.5,11.5,44,0.00,CLR,SCT,0.00,WeatherDisplay:10.37,2013-01-22 18:16:00,
2013-01-22 13:17:00,27.0,6.9,30.25,West,259,12.7,12.7,42,0.00,CLR,SCT,0.00,WeatherDisplay:10.37,2013-01-22 18:17:00,
2013-01-22 13:19:00,27.0,7.4,30.25,West,280,13.8,13.8,43,0.00,CLR,SCT,0.00,WeatherDisplay:10.37,2013-01-22 18:19:00,
2013-01-22 13:21:00,27.0,7.4,30.24,NW,317,9.2,9.2,43,0.00,CLR,SCT,0.00,WeatherDisplay:10.37,2013-01-22 18:21:00,
2013-01-22 13:22:00,27.0,7.4,30.24,NW,308,8.1,8.1,43,0.00,CLR,SCT,0.00,WeatherDisplay:10.37,2013-01-22 18:22:00,
2013-01-22 13:23:00,27.2,8.1,30.24,West,278,11.5,11.5,44,0.00,CLR,SCT,0.00,WeatherDisplay:10.37,2013-01-22 18:23:00,
2013-01-22 13:27:00,27.3,8.2,30.24,WSW,257,12.7,12.7,44,0.00,CLR,SCT,0.00,WeatherDisplay:10.37,2013-01-22 18:27:00,
2013-01-22 13:28:00,27.3,7.7,30.23,West,271,16.1,16.1,43,0.00,CLR,SCT,0.00,WeatherDisplay:10.37,2013-01-22 18:28:00,
2013-01-22 13:32:00,27.3,7.7,30.24,West,261,10.4,10.4,43,0.00,CLR,SCT,0.00,WeatherDisplay:10.37,2013-01-22 18:32:00,
2013-01-22 13:33:00,27.3,7.7,30.24,West,269,12.0,12.0,43,0.00,CLR,SCT,0.00,WeatherDisplay:10.37,2013-01-22 18:33:00,
2013-01-22 13:36:00,27.2,6.0,30.23,WSW,255,13.8,13.8,40,0.00,CLR,SCT,0.00,WeatherDisplay:10.37,2013-01-22 18:36:00,
2013-01-22 13:37:00,27.3,7.2,30.23,WNW,283,13.8,13.8,42,0.00,CLR,SCT,0.00,WeatherDisplay:10.37,2013-01-22 18:37:00,
2013-01-22 13:39:00,27.3,7.7,30.24,WSW,244,11.5,11.5,43,0.00,CLR,SCT,0.00,WeatherDisplay:10.37,2013-01-22 18:39:00,
2013-01-22 13:43:00,27.5,6.3,30.24,SW,231,17.3,17.3,40,0.00,CLR,SCT,0.00,WeatherDisplay:10.37,2013-01-22 18:43:00,
2013-01-22 13:46:00,27.5,6.8,30.24,West,263,15.0,15.0,41,0.00,CLR,SCT,0.00,WeatherDisplay:10.37,2013-01-22 18:46:00,
2013-01-22 13:47:00,27.5,6.8,30.24,West,281,13.8,13.8,41,0.00,CLR,SCT,0.00,WeatherDisplay:10.37,2013-01-22 18:47:00,
2013-01-22 13:51:00,27.6,6.9,30.24,WSW,240,15.0,15.0,41,0.00,CLR,SCT,0.00,WeatherDisplay:10.37,2013-01-22 18:51:00,
2013-01-22 13:52:00,27.6,6.4,30.23,WSW,248,15.0,15.0,40,0.00,CLR,SCT,0.00,WeatherDisplay:10.37,2013-01-22 18:52:00,
2013-01-22 13:54:00,27.6,6.9,30.24,WSW,238,12.7,12.7,41,0.00,CLR,SCT,0.00,WeatherDisplay:10.37,2013-01-22 18:54:00,
2013-01-22 13:57:00,27.6,7.5,30.23,West,261,13.0,13.0,42,0.00,CLR,SCT,0.00,WeatherDisplay:10.37,2013-01-22 18:57:00,
2013-01-22 13:58:00,27.6,6.9,30.23,West,265,16.1,16.1,41,0.00,CLR,SCT,0.00,WeatherDisplay:10.37,2013-01-22 18:58:00,
2013-01-22 13:59:00,27.6,7.5,30.23,WSW,257,11.5,11.5,42,0.00,CLR,SCT,0.00,WeatherDisplay:10.37,2013-01-22 18:59:00,
2013-01-22 14:03:00,27.6,6.9,30.23,SW,233,16.1,16.1,41,0.00,CLR,SCT,0.00,WeatherDisplay:10.37,2013-01-22 19:03:00,
2013-01-22 14:07:00,27.9,7.7,30.22,West,269,13.8,13.8,42,0.00,CLR,SCT,0.00,WeatherDisplay:10.37,2013-01-22 19:07:00,
2013-01-22 14:08:00,27.9,7.2,30.22,West,259,18.4,18.4,41,0.00,CLR,SCT,0.00,WeatherDisplay:10.37,2013-01-22 19:08:00,
2013-01-22 14:10:00,27.8,6.6,30.22,SW,215,13.8,13.8,40,0.00,CLR,SCT,0.00,WeatherDisplay:10.37,2013-01-22 19:10:00,
2013-01-22 14:11:00,27.6,5.8,30.22,SW,234,12.7,12.7,39,0.00,CLR,SCT,0.00,WeatherDisplay:10.37,2013-01-22 19:11:00,
2013-01-22 14:15:00,27.6,7.5,30.22,WSW,258,11.5,11.5,42,0.00,CLR,SCT,0.00,WeatherDisplay:10.37,2013-01-22 19:15:00,
2013-01-22 14:16:00,27.6,6.9,30.22,SW,227,11.5,11.5,41,0.00,CLR,SCT,0.00,WeatherDisplay:10.37,2013-01-22 19:16:00,
2013-01-22 14:19:00,27.6,6.9,30.22,SW,236,12.7,12.7,41,0.00,CLR,SCT,0.00,WeatherDisplay:10.37,2013-01-22 19:19:00,
2013-01-22 14:20:00,27.6,6.4,30.22,West,273,13.8,13.8,40,0.00,CLR,SCT,0.00,WeatherDisplay:10.37,2013-01-22 19:20:00,
2013-01-22 14:22:00,27.8,7.1,30.22,WSW,238,11.5,11.5,41,0.00,CLR,SCT,0.00,WeatherDisplay:10.37,2013-01-22 19:22:00,
2013-01-22 14:24:00,27.8,6.6,30.22,SSW,212,16.1,16.1,40,0.00,CLR,SCT,0.00,WeatherDisplay:10.37,2013-01-22 19:24:00,
2013-01-22 14:26:00,27.8,7.1,30.22,WSW,252,15.0,15.0,41,0.00,CLR,SCT,0.00,WeatherDisplay:10.37,2013-01-22 19:26:00,
2013-01-22 14:30:00,27.9,6.7,30.22,WSW,258,12.7,12.7,40,0.00,CLR,SCT,0.00,WeatherDisplay:10.37,2013-01-22 19:30:00,
2013-01-22 14:33:00,27.9,7.7,30.21,WSW,239,11.0,11.0,42,0.00,CLR,SCT,0.00,WeatherDisplay:10.37,2013-01-22 19:33:00,
2013-01-22 14:35:00,28.1,7.4,30.22,West,271,11.5,11.5,41,0.00,CLR,SCT,0.00,WeatherDisplay:10.37,2013-01-22 19:35:00,
2013-01-22 14:36:00,28.1,7.4,30.22,West,261,14.0,14.0,41,0.00,CLR,SCT,0.00,WeatherDisplay:10.37,2013-01-22 19:36:00,
2013-01-22 14:40:00,28.1,6.3,30.22,West,260,15.0,15.0,39,0.00,CLR,SCT,0.00,WeatherDisplay:10.37,2013-01-22 19:40:00,
2013-01-22 14:44:00,28.2,6.9,30.22,WSW,252,10.4,10.4,40,0.00,CLR,SCT,0.00,WeatherDisplay:10.37,2013-01-22 19:44:00,
2013-01-22 14:46:00,28.2,7.5,30.23,WSW,238,11.5,11.5,41,0.00,CLR,SCT,0.00,WeatherDisplay:10.37,2013-01-22 19:46:00,
2013-01-22 14:51:00,28.5,8.3,30.22,West,259,11.5,11.5,42,0.00,CLR,SCT,0.00,WeatherDisplay:10.37,2013-01-22 19:51:00,
2013-01-22 14:53:00,28.7,6.8,30.22,WSW,237,17.3,17.3,39,0.00,CLR,SCT,0.00,WeatherDisplay:10.37,2013-01-22 19:53:00,
2013-01-22 14:57:00,28.7,7.4,30.22,West,280,11.5,11.5,40,0.00,CLR,SCT,0.00,WeatherDisplay:10.37,2013-01-22 19:57:00,
2013-01-22 15:00:00,28.7,6.8,30.22,WSW,247,7.0,7.0,39,0.00,CLR,SCT,0.00,WeatherDisplay:10.37,2013-01-22 20:00:00,
2013-01-22 15:02:00,28.7,7.9,30.22,West,265,11.5,11.5,41,0.00,CLR,SCT,0.00,WeatherDisplay:10.37,2013-01-22 20:02:00,
2013-01-22 15:06:00,28.8,6.3,30.22,WSW,239,12.0,12.0,38,0.00,CLR,SCT,0.00,WeatherDisplay:10.37,2013-01-22 20:06:00,
2013-01-22 15:07:00,28.8,6.3,30.22,WSW,250,12.7,12.7,38,0.00,CLR,SCT,0.00,WeatherDisplay:10.37,2013-01-22 20:07:00,
2013-01-22 15:08:00,28.8,6.3,30.22,WSW,244,14.0,14.0,38,0.00,CLR,SCT,0.00,WeatherDisplay:10.37,2013-01-22 20:08:00,
2013-01-22 15:11:00,28.7,6.8,30.22,WSW,248,13.0,13.0,39,0.00,CLR,SCT,0.00,WeatherDisplay:10.37,2013-01-22 20:11:00,
2013-01-22 15:13:00,28.7,6.8,30.21,SW,220,13.0,13.0,39,0.00,CLR,SCT,0.00,WeatherDisplay:10.37,2013-01-22 20:13:00,
2013-01-22 15:14:00,28.7,6.8,30.21,SW,229,13.8,13.8,39,0.00,CLR,SCT,0.00,WeatherDisplay:10.37,2013-01-22 20:14:00,
2013-01-22 15:18:00,28.7,7.4,30.22,West,267,9.2,9.2,40,0.00,CLR,SCT,0.00,WeatherDisplay:10.37,2013-01-22 20:18:00,
2013-01-22 15:19:00,28.8,7.5,30.22,West,271,9.2,9.2,40,0.00,CLR,SCT,0.00,WeatherDisplay:10.37,2013-01-22 20:19:00,
2013-01-22 15:20:00,28.8,7.5,30.22,SW,234,11.0,11.0,40,0.00,CLR,SCT,0.00,WeatherDisplay:10.37,2013-01-22 20:20:00,
2013-01-22 15:21:00,28.8,6.3,30.22,WSW,240,13.8,13.8,38,0.00,CLR,SCT,0.00,WeatherDisplay:10.37,2013-01-22 20:21:00,
2013-01-22 15:24:00,28.8,5.2,30.22,WNW,282,16.1,16.1,36,0.00,CLR,SCT,0.00,WeatherDisplay:10.37,2013-01-22 20:24:00,
2013-01-22 15:27:00,29.0,7.1,30.21,West,267,11.5,11.5,39,0.00,CLR,SCT,0.00,WeatherDisplay:10.37,2013-01-22 20:27:00,
2013-01-22 15:29:00,29.0,7.7,30.21,WSW,250,11.5,11.5,40,0.00,CLR,SCT,0.00,WeatherDisplay:10.37,2013-01-22 20:29:00,
2013-01-22 15:30:00,29.0,7.1,30.21,West,266,12.7,12.7,39,0.00,CLR,SCT,0.00,WeatherDisplay:10.37,2013-01-22 20:30:00,
2013-01-22 15:32:00,29.1,7.7,30.21,West,275,11.5,11.5,40,0.00,CLR,SCT,0.00,WeatherDisplay:10.37,2013-01-22 20:32:00,
2013-01-22 15:35:00,29.1,7.7,30.21,WNW,286,8.1,8.1,40,0.00,CLR,SCT,0.00,WeatherDisplay:10.37,2013-01-22 20:35:00,
2013-01-22 15:39:00,29.4,8.0,30.21,West,261,11.5,11.5,40,0.00,CLR,SCT,0.00,WeatherDisplay:10.37,2013-01-22 20:39:00,
2013-01-22 15:40:00,29.4,8.0,30.22,West,276,9.2,9.2,40,0.00,CLR,SCT,0.00,WeatherDisplay:10.37,2013-01-22 20:40:00,
2013-01-22 15:41:00,29.4,8.0,30.22,West,278,5.8,5.8,40,0.00,CLR,SCT,0.00,WeatherDisplay:10.37,2013-01-22 20:41:00,
2013-01-22 15:44:00,29.5,8.7,30.21,West,273,10.0,10.0,41,0.00,CLR,SCT,0.00,WeatherDisplay:10.37,2013-01-22 20:44:00,
2013-01-22 15:47:00,29.5,7.5,30.21,West,263,12.7,12.7,39,0.00,CLR,SCT,0.00,WeatherDisplay:10.37,2013-01-22 20:47:00,
2013-01-22 15:49:00,29.4,6.9,30.22,WSW,257,11.5,11.5,38,0.00,CLR,SCT,0.00,WeatherDisplay:10.37,2013-01-22 20:49:00,
2013-01-22 15:50:00,29.4,8.0,30.22,WSW,245,12.0,12.0,40,0.00,CLR,SCT,0.00,WeatherDisplay:10.37,2013-01-22 20:50:00,
2013-01-22 15:53:00,29.3,7.4,30.22,West,263,10.4,10.4,39,0.00,CLR,SCT,0.00,WeatherDisplay:10.37,2013-01-22 20:53:00,
2013-01-22 15:54:00,29.3,7.4,30.22,WSW,241,11.5,11.5,39,0.00,CLR,SCT,0.00,WeatherDisplay:10.37,2013-01-22 20:54:00,
2013-01-22 15:55:00,29.3,7.4,30.22,WNW,288,12.7,12.7,39,0.00,CLR,SCT,0.00,WeatherDisplay:10.37,2013-01-22 20:55:00,
2013-01-22 15:56:00,29.3,7.9,30.22,WNW,290,12.7,12.7,40,0.00,CLR,SCT,0.00,WeatherDisplay:10.37,2013-01-22 20:56:00,
2013-01-22 15:59:00,29.4,8.0,30.22,West,280,6.9,6.9,40,0.00,CLR,SCT,0.00,WeatherDisplay:10.37,2013-01-22 20:59:00,
2013-01-22 16:00:00,29.4,8.0,30.22,West,281,6.9,6.9,40,0.00,CLR,SCT,0.00,WeatherDisplay:10.37,2013-01-22 21:00:00,
2013-01-22 16:03:00,29.5,8.1,30.22,WNW,290,10.4,10.4,40,0.00,CLR,SCT,0.00,WeatherDisplay:10.37,2013-01-22 21:03:00,
2013-01-22 16:05:00,29.7,7.7,30.22,West,271,11.5,11.5,39,0.00,CLR,SCT,0.00,WeatherDisplay:10.37,2013-01-22 21:05:00,
2013-01-22 16:07:00,29.7,8.3,30.22,West,262,10.4,10.4,40,0.00,CLR,SCT,0.00,WeatherDisplay:10.37,2013-01-22 21:07:00,
2013-01-22 16:08:00,29.7,8.3,30.22,WSW,240,11.5,11.5,40,0.00,CLR,SCT,0.00,WeatherDisplay:10.37,2013-01-22 21:08:00,
2013-01-22 16:10:00,29.7,8.3,30.22,WSW,247,11.0,11.0,40,0.00,CLR,SCT,0.00,WeatherDisplay:10.37,2013-01-22 21:10:00,
2013-01-22 16:11:00,29.7,8.3,30.22,SW,232,11.5,11.5,40,0.00,CLR,SCT,0.00,WeatherDisplay:10.37,2013-01-22 21:11:00,
2013-01-22 16:13:00,29.7,8.3,30.22,West,266,10.4,10.4,40,0.00,CLR,SCT,0.00,WeatherDisplay:10.37,2013-01-22 21:13:00,
2013-01-22 16:15:00,29.5,8.1,30.22,West,277,10.4,10.4,40,0.00,CLR,SCT,0.00,WeatherDisplay:10.37,2013-01-22 21:15:00,
2013-01-22 16:18:00,29.5,8.7,30.22,West,275,6.9,6.9,41,0.00,CLR,SCT,0.00,WeatherDisplay:10.37,2013-01-22 21:18:00,
2013-01-22 16:20:00,29.5,8.7,30.22,West,263,9.2,9.2,41,0.00,CLR,SCT,0.00,WeatherDisplay:10.37,2013-01-22 21:20:00,
2013-01-22 16:23:00,29.5,8.1,30.22,West,265,10.4,10.4,40,0.00,CLR,SCT,0.00,WeatherDisplay:10.37,2013-01-22 21:23:00,
2013-01-22 16:24:00,29.5,8.1,30.22,West,269,14.0,14.0,40,0.00,CLR,SCT,0.00,WeatherDisplay:10.37,2013-01-22 21:24:00,
2013-01-22 16:25:00,29.4,6.9,30.22,West,275,16.0,16.0,38,0.00,CLR,SCT,0.00,WeatherDisplay:10.37,2013-01-22 21:25:00,
2013-01-22 16:26:00,29.4,6.3,30.22,WSW,248,16.1,16.1,37,0.00,CLR,SCT,0.00,WeatherDisplay:10.37,2013-01-22 21:26:00,
2013-01-22 16:31:00,29.3,6.8,30.23,West,267,12.7,12.7,38,0.00,CLR,SCT,0.00,WeatherDisplay:10.37,2013-01-22 21:31:00,
2013-01-22 16:36:00,29.0,7.1,30.23,WNW,284,11.5,11.5,39,0.00,CLR,SCT,0.00,WeatherDisplay:10.37,2013-01-22 21:36:00,
2013-01-22 16:37:00,29.0,7.1,30.23,West,265,11.5,11.5,39,0.00,CLR,SCT,0.00,WeatherDisplay:10.37,2013-01-22 21:37:00,
2013-01-22 16:38:00,29.0,7.1,30.23,WSW,252,12.7,12.7,39,0.00,CLR,SCT,0.00,WeatherDisplay:10.37,2013-01-22 21:38:00,
2013-01-22 16:41:00,29.0,7.7,30.23,WSW,246,11.5,11.5,40,0.00,CLR,SCT,0.00,WeatherDisplay:10.37,2013-01-22 21:41:00,
2013-01-22 16:43:00,28.8,6.3,30.23,WSW,257,13.8,13.8,38,0.00,CLR,SCT,0.00,WeatherDisplay:10.37,2013-01-22 21:43:00,
2013-01-22 16:45:00,28.8,6.9,30.23,West,268,12.7,12.7,39,0.00,CLR,SCT,0.00,WeatherDisplay:10.37,2013-01-22 21:45:00,
2013-01-22 16:48:00,28.8,6.9,30.23,WSW,244,10.4,10.4,39,0.00,CLR,SCT,0.00,WeatherDisplay:10.37,2013-01-22 21:48:00,
2013-01-22 16:50:00,28.8,7.5,30.24,WSW,258,10.4,10.4,40,0.00,CLR,SCT,0.00,WeatherDisplay:10.37,2013-01-22 21:50:00,
2013-01-22 16:52:00,28.8,7.5,30.24,West,261,9.0,9.0,40,0.00,CLR,SCT,0.00,WeatherDisplay:10.37,2013-01-22 21:52:00,
2013-01-22 16:56:00,28.8,7.5,30.23,SW,236,11.5,11.5,40,0.00,CLR,SCT,0.00,WeatherDisplay:10.37,2013-01-22 21:56:00,
2013-01-22 16:57:00,28.8,6.9,30.23,SW,234,11.5,11.5,39,0.00,CLR,SCT,0.00,WeatherDisplay:10.37,2013-01-22 21:57:00,
2013-01-22 17:00:00,28.7,7.4,30.24,WSW,244,12.0,12.0,40,0.00,CLR,SCT,0.00,WeatherDisplay:10.37,2013-01-22 22:00:00,
2013-01-22 17:01:00,28.7,6.8,30.24,WSW,250,13.8,13.8,39,0.00,CLR,SCT,0.00,WeatherDisplay:10.37,2013-01-22 22:01:00,
2013-01-22 17:02:00,28.7,7.4,30.24,WSW,254,13.8,13.8,40,0.00,CLR,SCT,0.00,WeatherDisplay:10.37,2013-01-22 22:02:00,
2013-01-22 17:05:00,28.5,6.6,30.24,SW,224,11.5,11.5,39,0.00,CLR,SCT,0.00,WeatherDisplay:10.37,2013-01-22 22:05:00,
2013-01-22 17:10:00,28.4,6.6,30.24,SW,236,10.4,10.4,39,0.00,CLR,SCT,0.00,WeatherDisplay:10.37,2013-01-22 22:10:00,
2013-01-22 17:11:00,28.4,7.1,30.24,WSW,242,10.4,10.4,40,0.00,CLR,SCT,0.00,WeatherDisplay:10.37,2013-01-22 22:11:00,
2013-01-22 17:15:00,28.4,7.7,30.24,WSW,254,7.0,7.0,41,0.00,CLR,SCT,0.00,WeatherDisplay:10.37,2013-01-22 22:15:00,
2013-01-22 17:16:00,28.4,7.7,30.24,West,263,7.0,7.0,41,0.00,CLR,SCT,0.00,WeatherDisplay:10.37,2013-01-22 22:16:00,
2013-01-22 17:17:00,28.4,7.7,30.24,SW,232,9.2,9.2,41,0.00,CLR,SCT,0.00,WeatherDisplay:10.37,2013-01-22 22:17:00,
2013-01-22 17:20:00,28.2,7.5,30.24,WSW,242,10.4,10.4,41,0.00,CLR,SCT,0.00,WeatherDisplay:10.37,2013-01-22 22:20:00,
2013-01-22 17:21:00,28.2,7.5,30.24,WSW,251,11.5,11.5,41,0.00,CLR,SCT,0.00,WeatherDisplay:10.37,2013-01-22 22:21:00,
2013-01-22 17:22:00,28.2,7.5,30.24,WSW,255,11.5,11.5,41,0.00,CLR,SCT,0.00,WeatherDisplay:10.37,2013-01-22 22:22:00,
2013-01-22 17:26:00,28.1,7.4,30.24,WSW,241,10.0,10.0,41,0.00,CLR,SCT,0.00,WeatherDisplay:10.37,2013-01-22 22:26:00,
2013-01-22 17:28:00,28.1,6.8,30.24,West,276,12.7,12.7,40,0.00,CLR,SCT,0.00,WeatherDisplay:10.37,2013-01-22 22:28:00,
2013-01-22 17:29:00,28.1,6.3,30.24,WSW,253,12.7,12.7,39,0.00,CLR,SCT,0.00,WeatherDisplay:10.37,2013-01-22 22:29:00,
2013-01-22 17:32:00,27.9,6.1,30.24,WSW,253,11.5,11.5,39,0.00,CLR,SCT,0.00,WeatherDisplay:10.37,2013-01-22 22:32:00,
2013-01-22 17:33:00,27.9,6.1,30.24,West,281,11.5,11.5,39,0.00,CLR,SCT,0.00,WeatherDisplay:10.37,2013-01-22 22:33:00,
2013-01-22 17:36:00,27.9,6.1,30.25,WSW,252,13.0,13.0,39,0.00,CLR,SCT,0.00,WeatherDisplay:10.37,2013-01-22 22:36:00,
2013-01-22 17:38:00,27.9,6.1,30.25,WSW,249,11.5,11.5,39,0.00,CLR,SCT,0.00,WeatherDisplay:10.37,2013-01-22 22:38:00,
2013-01-22 17:41:00,27.9,6.1,30.24,West,270,11.5,11.5,39,0.00,CLR,SCT,0.00,WeatherDisplay:10.37,2013-01-22 22:41:00,
2013-01-22 17:43:00,27.9,6.1,30.24,WSW,258,10.4,10.4,39,0.00,CLR,SCT,0.00,WeatherDisplay:10.37,2013-01-22 22:43:00,
2013-01-22 17:47:00,27.8,6.6,30.24,WSW,252,11.5,11.5,40,0.00,CLR,SCT,0.00,WeatherDisplay:10.37,2013-01-22 22:47:00,
2013-01-22 17:48:00,27.8,6.6,30.24,WSW,256,8.1,8.1,40,0.00,CLR,SCT,0.00,WeatherDisplay:10.37,2013-01-22 22:48:00,
2013-01-22 17:50:00,27.8,7.1,30.24,WSW,253,6.9,6.9,41,0.00,CLR,SCT,0.00,WeatherDisplay:10.37,2013-01-22 22:50:00,
2013-01-22 17:52:00,27.6,6.9,30.25,WSW,255,8.1,8.1,41,0.00,CLR,SCT,0.00,WeatherDisplay:10.37,2013-01-22 22:52:00,
2013-01-22 17:53:00,27.6,6.9,30.25,WSW,254,4.6,4.6,41,0.00,CLR,SCT,0.00,WeatherDisplay:10.37,2013-01-22 22:53:00,
2013-01-22 17:54:00,27.6,6.9,30.25,West,266,5.8,5.9,41,0.00,CLR,SCT,0.00,WeatherDisplay:10.37,2013-01-22 22:54:00,
2013-01-22 17:55:00,27.6,6.9,30.25,West,266,9.2,9.2,41,0.00,CLR,SCT,0.00,WeatherDisplay:10.37,2013-01-22 22:55:00,
2013-01-22 18:00:00,27.5,6.8,30.25,West,267,9.2,9.2,41,0.00,CLR,SCT,0.00,WeatherDisplay:10.37,2013-01-22 23:00:00,
2013-01-22 18:04:00,27.5,7.4,30.24,WSW,255,9.2,9.2,42,0.00,CLR,SCT,0.00,WeatherDisplay:10.37,2013-01-22 23:04:00,
2013-01-22 18:07:00,27.3,7.2,30.24,WSW,256,5.8,5.8,42,0.00,CLR,SCT,0.00,WeatherDisplay:10.37,2013-01-22 23:07:00,
2013-01-22 18:09:00,27.3,7.7,30.24,WSW,254,6.0,6.0,43,0.00,CLR,SCT,0.00,WeatherDisplay:10.37,2013-01-22 23:09:00,
2013-01-22 18:12:00,27.2,7.6,30.25,WSW,256,4.6,4.6,43,0.00,CLR,SCT,0.00,WeatherDisplay:10.37,2013-01-22 23:12:00,
2013-01-22 18:13:00,27.2,7.6,30.25,WSW,256,4.6,4.6,43,0.00,CLR,SCT,0.00,WeatherDisplay:10.37,2013-01-22 23:13:00,
2013-01-22 18:15:00,27.0,7.4,30.24,WSW,256,3.5,3.5,43,0.00,CLR,SCT,0.00,WeatherDisplay:10.37,2013-01-22 23:15:00,
2013-01-22 18:18:00,27.0,8.0,30.25,WSW,255,3.5,3.5,44,0.00,CLR,SCT,0.00,WeatherDisplay:10.37,2013-01-22 23:18:00,
2013-01-22 18:20:00,26.9,7.9,30.25,WSW,255,3.5,3.5,44,0.00,CLR,SCT,0.00,WeatherDisplay:10.37,2013-01-22 23:20:00,
2013-01-22 18:23:00,26.9,7.9,30.24,WSW,255,2.3,2.3,44,0.00,CLR,SCT,0.00,WeatherDisplay:10.37,2013-01-22 23:23:00,
2013-01-22 18:24:00,26.7,7.7,30.24,WSW,255,2.3,2.3,44,0.00,CLR,SCT,0.00,WeatherDisplay:10.37,2013-01-22 23:24:00,
2013-01-22 18:25:00,26.7,8.2,30.24,WSW,252,4.6,4.6,45,0.00,CLR,SCT,0.00,WeatherDisplay:10.37,2013-01-22 23:25:00,
2013-01-22 18:28:00,26.7,8.2,30.24,WSW,252,4.0,4.0,45,0.00,CLR,SCT,0.00,WeatherDisplay:10.37,2013-01-22 23:28:00,
2013-01-22 18:31:00,26.6,8.1,30.23,WSW,252,3.5,3.5,45,0.00,CLR,SCT,0.00,WeatherDisplay:10.37,2013-01-22 23:31:00,
2013-01-22 18:34:00,26.6,8.1,30.23,WSW,252,3.5,3.5,45,0.00,CLR,SCT,0.00,WeatherDisplay:10.37,2013-01-22 23:34:00,
2013-01-22 18:38:00,26.4,7.9,30.24,WSW,252,3.5,3.5,45,0.00,CLR,SCT,0.00,WeatherDisplay:10.37,2013-01-22 23:38:00,
2013-01-22 18:39:00,26.4,7.9,30.24,WSW,252,3.5,3.5,45,0.00,CLR,SCT,0.00,WeatherDisplay:10.37,2013-01-22 23:39:00,
2013-01-22 18:42:00,26.4,8.4,30.24,WSW,252,3.5,3.5,46,0.00,CLR,SCT,0.00,WeatherDisplay:10.37,2013-01-22 23:42:00,
2013-01-22 18:44:00,26.3,8.3,30.24,WSW,252,2.3,2.3,46,0.00,CLR,SCT,0.00,WeatherDisplay:10.37,2013-01-22 23:44:00,
2013-01-22 18:45:00,26.3,8.3,30.24,WSW,252,4.0,4.0,46,0.00,CLR,SCT,0.00,WeatherDisplay:10.37,2013-01-22 23:45:00,
2013-01-22 18:46:00,26.3,8.3,30.24,WSW,252,3.5,3.5,46,0.00,CLR,SCT,0.00,WeatherDisplay:10.37,2013-01-22 23:46:00,
2013-01-22 18:49:00,26.3,8.3,30.24,WSW,252,3.5,3.5,46,0.00,CLR,SCT,0.00,WeatherDisplay:10.37,2013-01-22 23:49:00,
2013-01-22 18:52:00,26.3,8.3,30.24,WSW,252,2.3,2.3,46,0.00,CLR,SCT,0.00,WeatherDisplay:10.37,2013-01-22 23:52:00,
2013-01-22 18:57:00,26.1,8.6,30.24,WSW,252,2.3,2.3,47,0.00,CLR,SCT,0.00,WeatherDisplay:10.37,2013-01-22 23:57:00,
2013-01-22 18:58:00,26.1,8.6,30.24,WSW,252,0.0,0.0,47,0.00,CLR,SCT,0.00,WeatherDisplay:10.37,2013-01-22 23:58:00,
2013-01-22 19:03:00,26.1,8.6,30.24,WSW,252,0.0,0.0,47,0.00,CLR,SCT,0.00,WeatherDisplay:10.37,2013-01-23 00:03:00,
2013-01-22 19:04:00,26.1,8.6,30.24,WSW,252,0.0,0.0,47,0.00,CLR,SCT,0.00,WeatherDisplay:10.37,2013-01-23 00:04:00,
2013-01-22 19:08:00,26.3,8.8,30.24,WSW,252,0.0,0.0,47,0.00,,SCT,0.00,WeatherDisplay:10.37,2013-01-23 00:08:00,
2013-01-22 19:10:00,26.3,9.2,30.25,WSW,252,0.0,0.0,48,0.00,,SCT,0.00,WeatherDisplay:10.37,2013-01-23 00:10:00,
2013-01-22 19:13:00,26.3,9.2,30.25,WSW,252,0.0,0.0,48,0.00,,SCT,0.00,WeatherDisplay:10.37,2013-01-23 00:13:00,
2013-01-22 19:18:00,26.3,9.2,30.25,WSW,252,0.0,0.0,48,0.00,,SCT,0.00,WeatherDisplay:10.37,2013-01-23 00:18:00,
2013-01-22 19:21:00,26.4,9.3,30.26,WSW,251,0.0,0.0,48,0.00,,SCT,0.00,WeatherDisplay:10.37,2013-01-23 00:21:00,
2013-01-22 19:22:00,26.4,9.3,30.26,WSW,251,0.0,0.0,48,0.00,,SCT,0.00,WeatherDisplay:10.37,2013-01-23 00:22:00,
2013-01-22 19:23:00,26.4,9.3,30.26,WSW,251,0.0,0.0,48,0.00,,SCT,0.00,WeatherDisplay:10.37,2013-01-23 00:23:00,
2013-01-22 19:25:00,26.4,9.3,30.26,WSW,251,0.0,0.0,48,0.00,,SCT,0.00,WeatherDisplay:10.37,2013-01-23 00:25:00,
2013-01-22 19:26:00,26.4,9.3,30.26,WSW,252,0.0,0.0,48,0.00,,SCT,0.00,WeatherDisplay:10.37,2013-01-23 00:26:00,
2013-01-22 19:28:00,26.6,9.5,30.25,WSW,251,0.0,0.0,48,0.00,,SCT,0.00,WeatherDisplay:10.37,2013-01-23 00:28:00,
2013-01-22 19:29:00,26.6,9.5,30.25,WSW,251,0.0,0.0,48,0.00,,SCT,0.00,WeatherDisplay:10.37,2013-01-23 00:29:00,
2013-01-22 19:30:00,26.6,9.5,30.25,WSW,251,0.0,0.0,48,0.00,,SCT,0.00,WeatherDisplay:10.37,2013-01-23 00:30:00,
2013-01-22 19:34:00,26.6,9.5,30.25,WSW,251,0.0,0.0,48,0.00,,SCT,0.00,WeatherDisplay:10.37,2013-01-23 00:34:00,
2013-01-22 19:35:00,26.6,9.5,30.25,WSW,248,0.0,0.0,48,0.00,,SCT,0.00,WeatherDisplay:10.37,2013-01-23 00:35:00,
2013-01-22 19:36:00,26.7,9.1,30.25,WSW,248,0.0,0.0,47,0.00,,SCT,0.00,WeatherDisplay:10.37,2013-01-23 00:36:00,
2013-01-22 19:39:00,26.7,9.6,30.25,WSW,248,0.0,0.0,48,0.00,,SCT,0.00,WeatherDisplay:10.37,2013-01-23 00:39:00,
2013-01-22 19:44:00,26.7,9.1,30.26,WSW,242,0.0,0.0,47,0.00,,SCT,0.00,WeatherDisplay:10.37,2013-01-23 00:44:00,
2013-01-22 19:45:00,26.7,9.1,30.26,WSW,242,0.0,0.0,47,0.00,,SCT,0.00,WeatherDisplay:10.37,2013-01-23 00:45:00,
2013-01-22 19:49:00,26.7,9.1,30.25,WSW,242,0.0,0.0,47,0.00,,SCT,0.00,WeatherDisplay:10.37,2013-01-23 00:49:00,
2013-01-22 19:50:00,26.7,9.1,30.25,WSW,242,0.0,0.0,47,0.00,,SCT,0.00,WeatherDisplay:10.37,2013-01-23 00:50:00,
2013-01-22 19:51:00,26.7,9.1,30.25,WSW,242,0.0,0.0,47,0.00,,SCT,0.00,WeatherDisplay:10.37,2013-01-23 00:51:00,
2013-01-22 19:55:00,26.7,9.1,30.25,WSW,240,0.0,0.0,47,0.00,,SCT,0.00,WeatherDisplay:10.37,2013-01-23 00:55:00,
2013-01-22 19:58:00,26.7,9.1,30.25,WSW,244,0.0,0.0,47,0.00,,SCT,0.00,WeatherDisplay:10.37,2013-01-23 00:58:00,
2013-01-22 20:00:00,26.7,9.1,30.25,WSW,244,0.0,0.0,47,0.00,,SCT,0.00,WeatherDisplay:10.37,2013-01-23 01:00:00,
2013-01-22 20:03:00,26.6,9.1,30.25,WSW,243,3.5,3.5,47,0.00,,SCT,0.00,WeatherDisplay:10.37,2013-01-23 01:03:00,
2013-01-22 20:04:00,26.6,9.1,30.25,WSW,242,4.0,4.0,47,0.00,,SCT,0.00,WeatherDisplay:10.37,2013-01-23 01:04:00,
2013-01-22 20:06:00,26.4,8.9,30.25,WSW,238,5.8,5.8,47,0.00,,SCT,0.00,WeatherDisplay:10.37,2013-01-23 01:06:00,
2013-01-22 20:11:00,26.4,8.9,30.25,WSW,237,3.5,3.5,47,0.00,,SCT,0.00,WeatherDisplay:10.37,2013-01-23 01:11:00,
2013-01-22 20:13:00,26.3,8.8,30.25,WSW,238,3.5,3.5,47,0.00,,SCT,0.00,WeatherDisplay:10.37,2013-01-23 01:13:00,
2013-01-22 20:18:00,26.1,9.1,30.24,WSW,237,3.5,3.5,48,0.00,,SCT,0.00,WeatherDisplay:10.37,2013-01-23 01:18:00,
2013-01-22 20:20:00,26.1,9.1,30.25,SW,235,3.5,3.5,48,0.00,,SCT,0.00,WeatherDisplay:10.37,2013-01-23 01:20:00,
2013-01-22 20:21:00,26.1,9.1,30.25,SW,235,3.5,3.5,48,0.00,,SCT,0.00,WeatherDisplay:10.37,2013-01-23 01:21:00,
2013-01-22 20:22:00,26.1,9.1,30.25,SW,235,4.6,4.6,48,0.00,,SCT,0.00,WeatherDisplay:10.37,2013-01-23 01:22:00,
2013-01-22 20:26:00,26.1,8.6,30.25,SW,235,3.5,3.5,47,0.00,,SCT,0.00,WeatherDisplay:10.37,2013-01-23 01:26:00,
2013-01-22 20:27:00,26.1,8.6,30.25,SW,235,3.5,3.5,47,0.00,,SCT,0.00,WeatherDisplay:10.37,2013-01-23 01:27:00,
2013-01-22 20:32:00,26.1,8.6,30.25,SW,236,4.6,4.6,47,0.00,,SCT,0.00,WeatherDisplay:10.37,2013-01-23 01:32:00,
2013-01-22 20:33:00,26.1,9.1,30.25,WSW,238,4.6,4.6,48,0.00,,SCT,0.00,WeatherDisplay:10.37,2013-01-23 01:33:00,
2013-01-22 20:34:00,26.0,9.0,30.25,WSW,238,3.5,3.5,48,0.00,,SCT,0.00,WeatherDisplay:10.37,2013-01-23 01:34:00,
2013-01-22 20:38:00,26.0,9.0,30.26,WSW,239,5.8,5.8,48,0.00,,SCT,0.00,WeatherDisplay:10.37,2013-01-23 01:38:00,
2013-01-22 20:41:00,26.0,9.0,30.26,WSW,240,3.5,3.5,48,0.00,,SCT,0.00,WeatherDisplay:10.37,2013-01-23 01:41:00,
2013-01-22 20:43:00,26.0,9.0,30.26,WSW,240,4.6,4.6,48,0.00,,SCT,0.00,WeatherDisplay:10.37,2013-01-23 01:43:00,
2013-01-22 20:48:00,26.1,9.1,30.26,WSW,240,3.5,3.5,48,0.00,,SCT,0.00,WeatherDisplay:10.37,2013-01-23 01:48:00,
2013-01-22 20:49:00,26.1,9.1,30.26,WSW,240,3.5,3.5,48,0.00,,SCT,0.00,WeatherDisplay:10.37,2013-01-23 01:49:00,
2013-01-22 20:50:00,26.1,9.1,30.26,WSW,240,3.5,3.5,48,0.00,,SCT,0.00,WeatherDisplay:10.37,2013-01-23 01:50:00,
2013-01-22 20:54:00,26.1,9.1,30.26,WSW,240,4.6,4.6,48,0.00,,SCT,0.00,WeatherDisplay:10.37,2013-01-23 01:54:00,
2013-01-22 20:55:00,26.3,9.2,30.26,WSW,240,4.0,4.0,48,0.00,,SCT,0.00,WeatherDisplay:10.37,2013-01-23 01:55:00,
2013-01-22 20:56:00,26.3,9.2,30.26,WSW,240,3.5,3.5,48,0.00,,SCT,0.00,WeatherDisplay:10.37,2013-01-23 01:56:00,
2013-01-22 20:59:00,26.3,9.2,30.26,WSW,240,4.0,4.0,48,0.00,,SCT,0.00,WeatherDisplay:10.37,2013-01-23 01:59:00,
2013-01-22 21:00:00,26.3,9.2,30.26,WSW,240,4.0,4.0,48,0.00,,SCT,0.00,WeatherDisplay:10.37,2013-01-23 02:00:00,
2013-01-22 21:02:00,26.3,9.2,30.27,WSW,240,4.6,4.6,48,0.00,,SCT,0.00,WeatherDisplay:10.37,2013-01-23 02:02:00,
2013-01-22 21:04:00,26.3,9.2,30.27,WSW,240,3.5,3.5,48,0.00,,SCT,0.00,WeatherDisplay:10.37,2013-01-23 02:04:00,
2013-01-22 21:09:00,26.4,9.3,30.27,WSW,240,4.6,4.6,48,0.00,,SCT,0.00,WeatherDisplay:10.37,2013-01-23 02:09:00,
2013-01-22 21:13:00,26.4,9.3,30.26,WSW,244,4.0,4.0,48,0.00,,SCT,0.00,WeatherDisplay:10.37,2013-01-23 02:13:00,
2013-01-22 21:18:00,26.4,8.9,30.26,WSW,244,4.6,4.6,47,0.00,,SCT,0.00,WeatherDisplay:10.37,2013-01-23 02:18:00,
2013-01-22 21:19:00,26.6,9.1,30.26,WSW,244,3.5,3.5,47,0.00,,SCT,0.00,WeatherDisplay:10.37,2013-01-23 02:19:00,
2013-01-22 21:24:00,26.6,9.1,30.26,WSW,244,3.5,3.5,47,0.00,,SCT,0.00,WeatherDisplay:10.37,2013-01-23 02:24:00,
2013-01-22 21:25:00,26.6,9.1,30.25,WSW,244,3.5,3.5,47,0.00,,SCT,0.00,WeatherDisplay:10.37,2013-01-23 02:25:00,
2013-01-22 21:30:00,26.6,9.5,30.25,WSW,244,2.3,2.3,48,0.00,,SCT,0.00,WeatherDisplay:10.37,2013-01-23 02:30:00,
2013-01-22 21:33:00,26.6,9.5,30.25,WSW,244,3.5,3.5,48,0.00,,SCT,0.00,WeatherDisplay:10.37,2013-01-23 02:33:00,
2013-01-22 21:35:00,26.6,9.5,30.25,WSW,244,0.0,0.0,48,0.00,,SCT,0.00,WeatherDisplay:10.37,2013-01-23 02:35:00,
2013-01-22 21:36:00,26.6,9.5,30.25,WSW,244,0.0,0.0,48,0.00,,SCT,0.00,WeatherDisplay:10.37,2013-01-23 02:36:00,
2013-01-22 21:38:00,26.6,9.5,30.25,WSW,244,0.0,0.0,48,0.00,,SCT,0.00,WeatherDisplay:10.37,2013-01-23 02:38:00,
2013-01-22 21:40:00,26.6,9.5,30.25,WSW,244,0.0,0.0,48,0.00,,SCT,0.00,WeatherDisplay:10.37,2013-01-23 02:40:00,
2013-01-22 21:44:00,26.6,9.5,30.25,WSW,244,0.0,0.0,48,0.00,,SCT,0.00,WeatherDisplay:10.37,2013-01-23 02:44:00,
2013-01-22 21:47:00,26.6,10.0,30.25,WSW,244,0.0,0.0,49,0.00,,SCT,0.00,WeatherDisplay:10.37,2013-01-23 02:47:00,
2013-01-22 21:51:00,26.6,10.0,30.26,WSW,244,0.0,0.0,49,0.00,,SCT,0.00,WeatherDisplay:10.37,2013-01-23 02:51:00,
2013-01-22 21:52:00,26.6,10.0,30.26,WSW,244,0.0,0.0,49,0.00,,SCT,0.00,WeatherDisplay:10.37,2013-01-23 02:52:00,
2013-01-22 21:56:00,26.6,10.0,30.26,WSW,244,0.0,0.0,49,0.00,,SCT,0.00,WeatherDisplay:10.37,2013-01-23 02:56:00,
2013-01-22 21:57:00,26.6,10.0,30.25,WSW,244,0.0,0.0,49,0.00,,SCT,0.00,WeatherDisplay:10.37,2013-01-23 02:57:00,
2013-01-22 22:00:00,26.6,9.5,30.26,WSW,244,0.0,0.0,48,0.00,,SCT,0.00,WeatherDisplay:10.37,2013-01-23 03:00:00,
2013-01-22 22:02:00,26.6,9.5,30.26,WSW,244,0.0,0.0,48,0.00,,SCT,0.00,WeatherDisplay:10.37,2013-01-23 03:02:00,
2013-01-22 22:03:00,26.6,9.5,30.26,WSW,244,0.0,0.0,48,0.00,,SCT,0.00,WeatherDisplay:10.37,2013-01-23 03:03:00,
2013-01-22 22:06:00,26.6,9.5,30.25,WSW,244,0.0,0.0,48,0.00,,SCT,0.00,WeatherDisplay:10.37,2013-01-23 03:06:00,
2013-01-22 22:07:00,26.6,9.5,30.25,WSW,244,0.0,0.0,48,0.00,,SCT,0.00,WeatherDisplay:10.37,2013-01-23 03:07:00,
2013-01-22 22:09:00,26.6,9.5,30.25,WSW,244,0.0,0.0,48,0.00,,SCT,0.00,WeatherDisplay:10.37,2013-01-23 03:09:00,
2013-01-22 22:11:00,26.6,9.5,30.25,WSW,244,0.0,0.0,48,0.00,,SCT,0.00,WeatherDisplay:10.37,2013-01-23 03:11:00,
2013-01-22 22:14:00,26.6,9.5,30.25,WSW,244,0.0,0.0,48,0.00,,SCT,0.00,WeatherDisplay:10.37,2013-01-23 03:14:00,
2013-01-22 22:16:00,26.6,9.1,30.25,WSW,246,5.8,5.8,47,0.00,,SCT,0.00,WeatherDisplay:10.37,2013-01-23 03:16:00,
2013-01-22 22:19:00,26.6,9.1,30.25,WSW,246,4.6,4.6,47,0.00,,SCT,0.00,WeatherDisplay:10.37,2013-01-23 03:19:00,
2013-01-22 22:21:00,26.6,9.1,30.25,West,262,4.6,4.6,47,0.00,,SCT,0.00,WeatherDisplay:10.37,2013-01-23 03:21:00,
2013-01-22 22:23:00,26.6,9.1,30.25,West,262,4.6,4.6,47,0.00,,SCT,0.00,WeatherDisplay:10.37,2013-01-23 03:23:00,
2013-01-22 22:25:00,26.6,9.1,30.25,WSW,252,6.0,6.0,47,0.00,,SCT,0.00,WeatherDisplay:10.37,2013-01-23 03:25:00,
2013-01-22 22:27:00,26.6,8.1,30.25,WSW,254,8.1,8.1,45,0.00,,SCT,0.00,WeatherDisplay:10.37,2013-01-23 03:27:00,
2013-01-22 22:28:00,26.6,8.6,30.26,WSW,255,6.9,6.9,46,0.00,,SCT,0.00,WeatherDisplay:10.37,2013-01-23 03:28:00,
2013-01-22 22:29:00,26.6,8.6,30.26,WSW,256,6.9,6.9,46,0.00,,SCT,0.00,WeatherDisplay:10.37,2013-01-23 03:29:00,
2013-01-22 22:31:00,26.6,8.6,30.26,WSW,257,4.0,4.0,46,0.00,,SCT,0.00,WeatherDisplay:10.37,2013-01-23 03:31:00,
2013-01-22 22:32:00,26.6,8.6,30.26,WSW,257,4.6,4.6,46,0.00,,SCT,0.00,WeatherDisplay:10.37,2013-01-23 03:32:00,
2013-01-22 22:33:00,26.6,8.6,30.26,WSW,257,5.0,5.0,46,0.00,,SCT,0.00,WeatherDisplay:10.37,2013-01-23 03:33:00,
2013-01-22 22:34:00,26.6,8.6,30.26,WSW,257,5.0,5.0,46,0.00,,SCT,0.00,WeatherDisplay:10.37,2013-01-23 03:34:00,
2013-01-22 22:39:00,26.6,8.6,30.26,WSW,257,5.0,5.0,46,0.00,,SCT,0.00,WeatherDisplay:10.37,2013-01-23 03:39:00,
2013-01-22 22:41:00,26.6,8.6,30.26,WSW,257,3.5,3.5,46,0.00,,SCT,0.00,WeatherDisplay:10.37,2013-01-23 03:41:00,
2013-01-22 22:44:00,26.6,8.1,30.26,SW,234,7.0,7.0,45,0.00,,SCT,0.00,WeatherDisplay:10.37,2013-01-23 03:44:00,
2013-01-22 22:45:00,26.6,7.6,30.26,WSW,254,6.9,6.9,44,0.00,,SCT,0.00,WeatherDisplay:10.37,2013-01-23 03:45:00,
2013-01-22 22:47:00,26.6,7.6,30.26,West,261,8.1,8.1,44,0.00,,SCT,0.00,WeatherDisplay:10.37,2013-01-23 03:47:00,
2013-01-22 22:48:00,26.6,8.1,30.26,West,261,5.8,5.8,45,0.00,,SCT,0.00,WeatherDisplay:10.37,2013-01-23 03:48:00,
2013-01-22 22:50:00,26.6,8.1,30.26,West,261,4.6,4.6,45,0.00,,SCT,0.00,WeatherDisplay:10.37,2013-01-23 03:50:00,
2013-01-22 22:53:00,26.6,8.1,30.26,West,261,4.6,4.6,45,0.00,,SCT,0.00,WeatherDisplay:10.37,2013-01-23 03:53:00,
2013-01-22 22:55:00,26.6,8.1,30.26,West,261,4.0,4.0,45,0.00,,SCT,0.00,WeatherDisplay:10.37,2013-01-23 03:55:00,
2013-01-22 22:57:00,26.6,8.6,30.26,West,261,3.5,3.5,46,0.00,,SCT,0.00,WeatherDisplay:10.37,2013-01-23 03:57:00,
2013-01-22 22:58:00,26.6,8.6,30.26,West,261,3.5,3.5,46,0.00,,SCT,0.00,WeatherDisplay:10.37,2013-01-23 03:58:00,
2013-01-22 23:03:00,26.4,8.4,30.26,West,261,4.0,4.0,46,0.00,,SCT,0.00,WeatherDisplay:10.37,2013-01-23 04:03:00,
2013-01-22 23:04:00,26.4,8.4,30.26,West,261,6.0,6.0,46,0.00,,SCT,0.00,WeatherDisplay:10.37,2013-01-23 04:04:00,
2013-01-22 23:06:00,26.4,8.4,30.26,West,261,4.6,4.6,46,0.00,,SCT,0.00,WeatherDisplay:10.37,2013-01-23 04:06:00,
2013-01-22 23:08:00,26.4,8.4,30.26,West,261,4.0,4.0,46,0.00,,SCT,0.00,WeatherDisplay:10.37,2013-01-23 04:08:00,
2013-01-22 23:11:00,26.4,8.4,30.26,West,261,4.0,4.0,46,0.00,,SCT,0.00,WeatherDisplay:10.37,2013-01-23 04:11:00,
2013-01-22 23:13:00,26.4,8.4,30.26,West,261,3.5,3.5,46,0.00,,SCT,0.00,WeatherDisplay:10.37,2013-01-23 04:13:00,
2013-01-22 23:18:00,26.4,7.9,30.26,WSW,257,5.0,5.0,45,0.00,,SCT,0.00,WeatherDisplay:10.37,2013-01-23 04:18:00,
2013-01-22 23:19:00,26.4,7.9,30.26,WSW,257,4.6,4.6,45,0.00,,SCT,0.00,WeatherDisplay:10.37,2013-01-23 04:19:00,
2013-01-22 23:20:00,26.4,7.9,30.26,WSW,257,5.0,5.0,45,0.00,,SCT,0.00,WeatherDisplay:10.37,2013-01-23 04:20:00,
2013-01-22 23:21:00,26.4,7.9,30.26,WSW,257,4.6,4.6,45,0.00,,SCT,0.00,WeatherDisplay:10.37,2013-01-23 04:21:00,
2013-01-22 23:23:00,26.4,7.9,30.26,WSW,257,4.0,4.0,45,0.00,,SCT,0.00,WeatherDisplay:10.37,2013-01-23 04:23:00,
2013-01-22 23:28:00,26.4,7.9,30.25,WSW,257,4.0,4.0,45,0.00,,SCT,0.00,WeatherDisplay:10.37,2013-01-23 04:28:00,
2013-01-22 23:29:00,26.4,7.9,30.25,WSW,257,4.6,4.6,45,0.00,,SCT,0.00,WeatherDisplay:10.37,2013-01-23 04:29:00,
2013-01-22 23:31:00,26.4,8.4,30.25,WSW,257,4.0,4.0,46,0.00,,SCT,0.00,WeatherDisplay:10.37,2013-01-23 04:31:00,
2013-01-22 23:34:00,26.4,8.4,30.25,WSW,257,3.5,3.5,46,0.00,,SCT,0.00,WeatherDisplay:10.37,2013-01-23 04:34:00,
2013-01-22 23:37:00,26.4,8.4,30.26,West,261,4.6,4.6,46,0.00,,SCT,0.00,WeatherDisplay:10.37,2013-01-23 04:37:00,
2013-01-22 23:39:00,26.4,8.4,30.26,West,261,3.5,3.5,46,0.00,,SCT,0.00,WeatherDisplay:10.37,2013-01-23 04:39:00,
2013-01-22 23:42:00,26.4,8.4,30.26,West,261,3.0,3.0,46,0.00,,SCT,0.00,WeatherDisplay:10.37,2013-01-23 04:42:00,
2013-01-22 23:44:00,26.4,8.4,30.26,West,262,5.0,5.0,46,0.00,,SCT,0.00,WeatherDisplay:10.37,2013-01-23 04:44:00,
2013-01-22 23:49:00,26.3,7.8,30.26,West,261,6.9,6.9,45,0.00,,SCT,0.00,WeatherDisplay:10.37,2013-01-23 04:49:00,
2013-01-22 23:50:00,26.3,7.8,30.26,West,263,7.0,7.0,45,0.00,,SCT,0.00,WeatherDisplay:10.37,2013-01-23 04:50:00,
2013-01-22 23:51:00,26.3,7.8,30.26,West,263,6.9,6.9,45,0.00,,SCT,0.00,WeatherDisplay:10.37,2013-01-23 04:51:00,
2013-01-22 23:55:00,26.3,8.3,30.26,West,265,5.0,5.0,46,0.00,,SCT,0.00,WeatherDisplay:10.37,2013-01-23 04:55:00,